TAP117 LPPT-SBPA
Flight info
| Callsign | TAP117 |
|---|---|
| Flight time | 10h 29m |
| Altitude | 35000 |
| Route | ULVOT DCT BEXAL DCT SAMAR DCT YUSME DCT LIMAL/N0472F360 N873 IPERA DCT POMAT UN873 SADBA/N0472F380 UN873 NTL DCT SIKEL UZ21 OBDUV/N0461F400 UZ21 VUNOX UZ38 VUKMO |
| Aircraft | A339/H-SDE1E2E3GHIJ1J3J5M1P2RWXYZ/LB1D1 |
Departure
| Time | 2026-04-27 03:22 |
|---|---|
| Airport | Lisbon Humberto Delgado Airport (LPPT) |
Arrival
| Time | 2026-04-27 13:51 |
|---|---|
| Airport | Porto Alegre-Salgado Filho International Airport (SBPA) |
| Time | Latitude | Longitude | Altitude | Speed | Heading |
|---|---|---|---|---|---|
| 2026-04-27 02:44 | 38.77607 | -9.13202 | 334 ft | 0 kts | 77° |
| 2026-04-27 03:01 | 38.77607 | -9.13203 | 334 ft | 0 kts | 77° |
| 2026-04-27 03:02 | 38.77607 | -9.13202 | 334 ft | 0 kts | 77° |
| 2026-04-27 03:02 | 38.77604 | -9.13219 | 335 ft | 2 kts | 77° |
| 2026-04-27 03:02 | 38.77601 | -9.13238 | 336 ft | 2 kts | 77° |
| 2026-04-27 03:02 | 38.77597 | -9.13257 | 336 ft | 2 kts | 77° |
| 2026-04-27 03:03 | 38.77594 | -9.13276 | 337 ft | 2 kts | 77° |
| 2026-04-27 03:03 | 38.77597 | -9.13312 | 338 ft | 2 kts | 126° |
| 2026-04-27 03:03 | 38.77607 | -9.13326 | 339 ft | 2 kts | 152° |
| 2026-04-27 03:04 | 38.77615 | -9.13330 | 340 ft | 1 kts | 167° |
| 2026-04-27 03:04 | 38.77618 | -9.13331 | 340 ft | 0 kts | 166° |
| 2026-04-27 03:06 | 38.77617 | -9.13330 | 340 ft | 1 kts | 167° |
| 2026-04-27 03:06 | 38.77590 | -9.13322 | 339 ft | 6 kts | 168° |
| 2026-04-27 03:06 | 38.77535 | -9.13308 | 337 ft | 9 kts | 170° |
| 2026-04-27 03:07 | 38.77457 | -9.13287 | 336 ft | 12 kts | 168° |
| 2026-04-27 03:07 | 38.77365 | -9.13265 | 336 ft | 14 kts | 170° |
| 2026-04-27 03:07 | 38.77267 | -9.13242 | 336 ft | 14 kts | 168° |
| 2026-04-27 03:07 | 38.77172 | -9.13216 | 335 ft | 13 kts | 167° |
| 2026-04-27 03:08 | 38.77091 | -9.13194 | 337 ft | 10 kts | 168° |
| 2026-04-27 03:08 | 38.77029 | -9.13178 | 340 ft | 7 kts | 169° |
| 2026-04-27 03:08 | 38.76983 | -9.13167 | 341 ft | 6 kts | 168° |
| 2026-04-27 03:08 | 38.76937 | -9.13154 | 340 ft | 7 kts | 167° |
| 2026-04-27 03:09 | 38.76887 | -9.13140 | 340 ft | 7 kts | 168° |
| 2026-04-27 03:09 | 38.76832 | -9.13127 | 340 ft | 8 kts | 175° |
| 2026-04-27 03:09 | 38.76785 | -9.13168 | 341 ft | 8 kts | 243° |
| 2026-04-27 03:09 | 38.76769 | -9.13237 | 342 ft | 7 kts | 259° |
| 2026-04-27 03:10 | 38.76759 | -9.13298 | 343 ft | 6 kts | 257° |
| 2026-04-27 03:10 | 38.76747 | -9.13351 | 344 ft | 6 kts | 248° |
| 2026-04-27 03:10 | 38.76718 | -9.13400 | 344 ft | 7 kts | 223° |
| 2026-04-27 03:10 | 38.76683 | -9.13436 | 345 ft | 5 kts | 222° |
| 2026-04-27 03:11 | 38.76664 | -9.13472 | 346 ft | 4 kts | 245° |
| 2026-04-27 03:11 | 38.76655 | -9.13505 | 347 ft | 4 kts | 253° |
| 2026-04-27 03:11 | 38.76647 | -9.13548 | 347 ft | 6 kts | 258° |
| 2026-04-27 03:11 | 38.76636 | -9.13615 | 347 ft | 9 kts | 258° |
| 2026-04-27 03:12 | 38.76619 | -9.13708 | 348 ft | 12 kts | 257° |
| 2026-04-27 03:12 | 38.76600 | -9.13823 | 348 ft | 13 kts | 258° |
| 2026-04-27 03:12 | 38.76582 | -9.13937 | 348 ft | 12 kts | 259° |
| 2026-04-27 03:12 | 38.76541 | -9.14036 | 347 ft | 12 kts | 231° |
| 2026-04-27 03:13 | 38.76500 | -9.14139 | 345 ft | 13 kts | 266° |
| 2026-04-27 03:13 | 38.76515 | -9.14233 | 344 ft | 0 kts | 291° |
| 2026-04-27 03:19 | 38.76517 | -9.14240 | 344 ft | 2 kts | 291° |
| 2026-04-27 03:19 | 38.76528 | -9.14278 | 345 ft | 6 kts | 291° |
| 2026-04-27 03:20 | 38.76551 | -9.14351 | 345 ft | 10 kts | 291° |
| 2026-04-27 03:20 | 38.76588 | -9.14414 | 347 ft | 6 kts | 351° |
| 2026-04-27 03:20 | 38.76618 | -9.14401 | 348 ft | 5 kts | 24° |
| 2026-04-27 03:20 | 38.76839 | -9.14283 | 350 ft | 64 kts | 23° |
| 2026-04-27 03:21 | 38.77423 | -9.13969 | 363 ft | 116 kts | 22° |
| 2026-04-27 03:21 | 38.78315 | -9.13492 | 369 ft | 162 kts | 22° |
| 2026-04-27 03:21 | 38.79490 | -9.12856 | 365 ft | 199 kts | 23° |
| 2026-04-27 03:21 | 38.80807 | -9.12069 | 625 ft | 215 kts | 30° |
| 2026-04-27 03:22 | 38.82064 | -9.11098 | 1500 ft | 207 kts | 32° |
| 2026-04-27 03:22 | 38.83252 | -9.10195 | 2388 ft | 197 kts | 31° |
| 2026-04-27 03:22 | 38.84476 | -9.09310 | 2758 ft | 206 kts | 31° |
| 2026-04-27 03:22 | 38.85774 | -9.08408 | 3021 ft | 220 kts | 30° |
| 2026-04-27 03:23 | 38.87159 | -9.07402 | 3281 ft | 234 kts | 40° |
| 2026-04-27 03:23 | 38.88133 | -9.05716 | 3528 ft | 246 kts | 71° |
| 2026-04-27 03:23 | 38.88359 | -9.03518 | 3908 ft | 256 kts | 97° |
| 2026-04-27 03:23 | 38.87782 | -9.01367 | 4468 ft | 260 kts | 118° |
| 2026-04-27 03:24 | 38.86845 | -8.99345 | 5067 ft | 262 kts | 119° |
| 2026-04-27 03:24 | 38.85698 | -8.97551 | 5585 ft | 269 kts | 142° |
| 2026-04-27 03:24 | 38.83949 | -8.96616 | 6135 ft | 276 kts | 171° |
| 2026-04-27 03:24 | 38.82040 | -8.96825 | 6676 ft | 283 kts | 198° |
| 2026-04-27 03:25 | 38.80225 | -8.97795 | 7221 ft | 286 kts | 201° |
| 2026-04-27 03:25 | 38.78390 | -8.98821 | 7758 ft | 289 kts | 201° |
| 2026-04-27 03:25 | 38.76522 | -8.99852 | 8304 ft | 291 kts | 201° |
| 2026-04-27 03:25 | 38.74661 | -9.00867 | 8828 ft | 294 kts | 201° |
| 2026-04-27 03:26 | 38.72781 | -9.01884 | 9340 ft | 296 kts | 201° |
| 2026-04-27 03:26 | 38.70862 | -9.02917 | 9852 ft | 299 kts | 201° |
| 2026-04-27 03:26 | 38.68908 | -9.03965 | 10323 ft | 304 kts | 201° |
| 2026-04-27 03:26 | 38.66927 | -9.05025 | 10565 ft | 317 kts | 201° |
| 2026-04-27 03:27 | 38.64848 | -9.06137 | 10800 ft | 331 kts | 201° |
| 2026-04-27 03:27 | 38.62683 | -9.07294 | 11034 ft | 344 kts | 201° |
| 2026-04-27 03:27 | 38.60409 | -9.08509 | 11286 ft | 356 kts | 201° |
| 2026-04-27 03:27 | 38.58105 | -9.09738 | 11728 ft | 361 kts | 201° |
| 2026-04-27 03:28 | 38.55794 | -9.10971 | 12279 ft | 363 kts | 201° |
| 2026-04-27 03:28 | 38.53450 | -9.12221 | 12848 ft | 366 kts | 201° |
| 2026-04-27 03:28 | 38.51085 | -9.13481 | 13368 ft | 368 kts | 201° |
| 2026-04-27 03:28 | 38.48708 | -9.14746 | 13909 ft | 371 kts | 201° |
| 2026-04-27 03:29 | 38.46347 | -9.16000 | 14455 ft | 373 kts | 202° |
| 2026-04-27 03:29 | 38.43928 | -9.17322 | 14997 ft | 376 kts | 205° |
| 2026-04-27 03:29 | 38.41626 | -9.18897 | 15520 ft | 378 kts | 211° |
| 2026-04-27 03:29 | 38.39451 | -9.20779 | 16042 ft | 380 kts | 216° |
| 2026-04-27 03:30 | 38.37337 | -9.22825 | 16571 ft | 382 kts | 217° |
| 2026-04-27 03:30 | 38.35226 | -9.24898 | 17095 ft | 384 kts | 217° |
| 2026-04-27 03:30 | 38.33117 | -9.26969 | 17617 ft | 385 kts | 217° |
| 2026-04-27 03:30 | 38.30965 | -9.29077 | 18137 ft | 387 kts | 217° |
| 2026-04-27 03:31 | 38.28837 | -9.31155 | 18632 ft | 389 kts | 217° |
| 2026-04-27 03:31 | 38.26658 | -9.33277 | 19123 ft | 391 kts | 217° |
| 2026-04-27 03:31 | 38.24512 | -9.35364 | 19597 ft | 393 kts | 217° |
| 2026-04-27 03:31 | 38.22340 | -9.37475 | 20054 ft | 395 kts | 217° |
| 2026-04-27 03:32 | 38.20139 | -9.39611 | 20504 ft | 397 kts | 217° |
| 2026-04-27 03:32 | 38.17916 | -9.41765 | 20964 ft | 399 kts | 217° |
| 2026-04-27 03:32 | 38.15722 | -9.43892 | 21395 ft | 401 kts | 217° |
| 2026-04-27 03:32 | 38.13481 | -9.46061 | 21821 ft | 403 kts | 217° |
| 2026-04-27 03:33 | 38.11239 | -9.48229 | 22227 ft | 405 kts | 217° |
| 2026-04-27 03:33 | 38.08993 | -9.50399 | 22622 ft | 407 kts | 217° |
| 2026-04-27 03:33 | 38.06723 | -9.52593 | 23005 ft | 410 kts | 217° |
| 2026-04-27 03:33 | 38.04417 | -9.54818 | 23382 ft | 412 kts | 217° |
| 2026-04-27 03:34 | 38.02147 | -9.57007 | 23749 ft | 413 kts | 217° |
| 2026-04-27 03:34 | 37.99867 | -9.59236 | 24114 ft | 415 kts | 219° |
| 2026-04-27 03:34 | 37.97631 | -9.61601 | 24467 ft | 417 kts | 220° |
| 2026-04-27 03:34 | 37.95415 | -9.63966 | 24819 ft | 419 kts | 220° |
| 2026-04-27 03:35 | 37.93150 | -9.66381 | 25160 ft | 421 kts | 219° |
| 2026-04-27 03:35 | 37.90911 | -9.68769 | 25490 ft | 423 kts | 219° |
| 2026-04-27 03:35 | 37.88638 | -9.71190 | 25819 ft | 425 kts | 219° |
| 2026-04-27 03:35 | 37.86375 | -9.73599 | 26020 ft | 430 kts | 219° |
| 2026-04-27 03:36 | 37.84067 | -9.76054 | 26220 ft | 434 kts | 219° |
| 2026-04-27 03:36 | 37.81753 | -9.78514 | 26511 ft | 436 kts | 219° |
| 2026-04-27 03:36 | 37.79429 | -9.80981 | 26827 ft | 437 kts | 219° |
| 2026-04-27 03:36 | 37.77082 | -9.83473 | 27117 ft | 439 kts | 219° |
| 2026-04-27 03:37 | 37.74740 | -9.85956 | 27401 ft | 441 kts | 219° |
| 2026-04-27 03:37 | 37.72406 | -9.88429 | 27667 ft | 442 kts | 219° |
| 2026-04-27 03:37 | 37.70054 | -9.90919 | 27933 ft | 444 kts | 219° |
| 2026-04-27 03:37 | 37.67654 | -9.93457 | 28198 ft | 446 kts | 219° |
| 2026-04-27 03:38 | 37.65273 | -9.95972 | 28449 ft | 448 kts | 219° |
| 2026-04-27 03:38 | 37.62885 | -9.98459 | 28683 ft | 450 kts | 217° |
| 2026-04-27 03:38 | 37.60350 | -10.00851 | 28938 ft | 451 kts | 215° |
| 2026-04-27 03:38 | 37.57781 | -10.03169 | 29183 ft | 453 kts | 215° |
| 2026-04-27 03:39 | 37.55220 | -10.05478 | 29418 ft | 454 kts | 215° |
| 2026-04-27 03:39 | 37.52648 | -10.07795 | 29662 ft | 456 kts | 215° |
| 2026-04-27 03:39 | 37.50069 | -10.10117 | 29894 ft | 457 kts | 215° |
| 2026-04-27 03:39 | 37.47461 | -10.12463 | 30141 ft | 458 kts | 215° |
| 2026-04-27 03:40 | 37.44854 | -10.14807 | 30465 ft | 458 kts | 215° |
| 2026-04-27 03:40 | 37.42282 | -10.17118 | 30831 ft | 456 kts | 215° |
| 2026-04-27 03:40 | 37.39714 | -10.19424 | 31168 ft | 455 kts | 215° |
| 2026-04-27 03:40 | 37.37143 | -10.21729 | 31458 ft | 454 kts | 215° |
| 2026-04-27 03:41 | 37.34571 | -10.24033 | 31687 ft | 455 kts | 214° |
| 2026-04-27 03:41 | 37.31969 | -10.26363 | 31901 ft | 457 kts | 214° |
| 2026-04-27 03:41 | 37.29365 | -10.28692 | 32153 ft | 457 kts | 214° |
| 2026-04-27 03:41 | 37.26772 | -10.31010 | 32436 ft | 456 kts | 214° |
| 2026-04-27 03:42 | 37.24211 | -10.33297 | 32722 ft | 455 kts | 214° |
| 2026-04-27 03:42 | 37.21613 | -10.35615 | 32994 ft | 455 kts | 214° |
| 2026-04-27 03:42 | 37.19046 | -10.37905 | 33238 ft | 455 kts | 214° |
| 2026-04-27 03:42 | 37.16462 | -10.40207 | 33474 ft | 455 kts | 214° |
| 2026-04-27 03:43 | 37.13839 | -10.42540 | 33731 ft | 454 kts | 214° |
| 2026-04-27 03:43 | 37.11278 | -10.44819 | 33990 ft | 453 kts | 214° |
| 2026-04-27 03:43 | 37.08691 | -10.47118 | 34219 ft | 453 kts | 214° |
| 2026-04-27 03:43 | 37.06099 | -10.49418 | 34386 ft | 453 kts | 214° |
| 2026-04-27 03:44 | 37.03536 | -10.51691 | 34513 ft | 454 kts | 214° |
| 2026-04-27 03:44 | 37.00956 | -10.53976 | 34650 ft | 455 kts | 214° |
| 2026-04-27 03:44 | 36.98381 | -10.56254 | 34792 ft | 456 kts | 214° |
| 2026-04-27 03:44 | 36.95776 | -10.58558 | 34945 ft | 456 kts | 214° |
| 2026-04-27 03:45 | 36.93173 | -10.60860 | 35123 ft | 455 kts | 214° |
| 2026-04-27 03:45 | 36.90599 | -10.63133 | 35298 ft | 454 kts | 214° |
| 2026-04-27 03:45 | 36.88016 | -10.65413 | 35464 ft | 454 kts | 214° |
| 2026-04-27 03:45 | 36.85450 | -10.67675 | 35631 ft | 453 kts | 214° |
| 2026-04-27 03:46 | 36.82851 | -10.69964 | 35790 ft | 453 kts | 214° |
| 2026-04-27 03:46 | 36.80269 | -10.72238 | 35921 ft | 453 kts | 214° |
| 2026-04-27 03:46 | 36.77697 | -10.74500 | 35977 ft | 454 kts | 214° |
| 2026-04-27 03:47 | 36.72512 | -10.79055 | 35985 ft | 454 kts | 214° |
| 2026-04-27 03:47 | 36.67351 | -10.83580 | 35993 ft | 454 kts | 214° |
| 2026-04-27 03:48 | 36.62167 | -10.88117 | 35997 ft | 454 kts | 214° |
| 2026-04-27 03:48 | 36.56989 | -10.92644 | 35996 ft | 454 kts | 214° |
| 2026-04-27 03:49 | 36.51830 | -10.97146 | 35998 ft | 453 kts | 213° |
| 2026-04-27 03:49 | 36.46677 | -11.01636 | 36002 ft | 453 kts | 213° |
| 2026-04-27 03:50 | 36.41525 | -11.06115 | 36001 ft | 454 kts | 213° |
| 2026-04-27 03:50 | 36.36432 | -11.10535 | 36000 ft | 454 kts | 213° |
| 2026-04-27 03:51 | 36.31258 | -11.15020 | 36004 ft | 454 kts | 213° |
| 2026-04-27 03:51 | 36.26117 | -11.19470 | 35999 ft | 455 kts | 213° |
| 2026-04-27 03:52 | 36.20911 | -11.23970 | 35993 ft | 454 kts | 213° |
| 2026-04-27 03:52 | 36.15728 | -11.28442 | 35991 ft | 454 kts | 213° |
| 2026-04-27 03:53 | 36.10569 | -11.32885 | 35988 ft | 454 kts | 213° |
| 2026-04-27 03:53 | 36.05401 | -11.37329 | 35989 ft | 455 kts | 213° |
| 2026-04-27 03:54 | 36.00216 | -11.41779 | 35987 ft | 455 kts | 213° |
| 2026-04-27 03:54 | 35.94839 | -11.45910 | 35987 ft | 454 kts | 207° |
| 2026-04-27 03:55 | 35.89235 | -11.49462 | 35995 ft | 454 kts | 206° |
| 2026-04-27 03:55 | 35.83611 | -11.52972 | 35987 ft | 454 kts | 206° |
| 2026-04-27 03:56 | 35.77999 | -11.56471 | 35988 ft | 454 kts | 206° |
| 2026-04-27 03:56 | 35.72367 | -11.59975 | 35987 ft | 453 kts | 206° |
| 2026-04-27 03:57 | 35.66720 | -11.63484 | 35987 ft | 453 kts | 206° |
| 2026-04-27 03:57 | 35.61101 | -11.66970 | 35989 ft | 453 kts | 205° |
| 2026-04-27 03:58 | 35.55500 | -11.70439 | 35984 ft | 454 kts | 205° |
| 2026-04-27 03:58 | 35.49859 | -11.73928 | 35986 ft | 454 kts | 205° |
| 2026-04-27 03:59 | 35.44201 | -11.77422 | 35989 ft | 454 kts | 205° |
| 2026-04-27 03:59 | 35.38571 | -11.80890 | 35987 ft | 454 kts | 205° |
| 2026-04-27 04:00 | 35.32952 | -11.84349 | 35987 ft | 454 kts | 206° |
| 2026-04-27 04:00 | 35.27325 | -11.87806 | 35983 ft | 454 kts | 206° |
| 2026-04-27 04:01 | 35.21684 | -11.91268 | 35984 ft | 454 kts | 206° |
| 2026-04-27 04:01 | 35.16034 | -11.94730 | 35990 ft | 454 kts | 206° |
| 2026-04-27 04:02 | 35.10375 | -11.98192 | 35988 ft | 455 kts | 206° |
| 2026-04-27 04:02 | 35.04748 | -12.01627 | 35988 ft | 454 kts | 206° |
| 2026-04-27 04:03 | 34.99082 | -12.05082 | 35993 ft | 454 kts | 206° |
| 2026-04-27 04:03 | 34.93440 | -12.08517 | 36000 ft | 454 kts | 206° |
| 2026-04-27 04:04 | 34.87801 | -12.11945 | 35998 ft | 454 kts | 206° |
| 2026-04-27 04:04 | 34.82141 | -12.15381 | 35997 ft | 454 kts | 206° |
| 2026-04-27 04:05 | 34.76500 | -12.18799 | 35997 ft | 454 kts | 206° |
| 2026-04-27 04:05 | 34.70849 | -12.22219 | 35994 ft | 454 kts | 206° |
| 2026-04-27 04:06 | 34.65205 | -12.25627 | 36000 ft | 455 kts | 206° |
| 2026-04-27 04:06 | 34.59555 | -12.29035 | 36000 ft | 454 kts | 206° |
| 2026-04-27 04:07 | 34.51091 | -12.34131 | 35997 ft | 454 kts | 206° |
| 2026-04-27 04:07 | 34.45423 | -12.37537 | 35998 ft | 453 kts | 206° |
| 2026-04-27 04:08 | 34.39807 | -12.40907 | 35997 ft | 453 kts | 206° |
| 2026-04-27 04:08 | 34.34128 | -12.44309 | 35999 ft | 453 kts | 206° |
| 2026-04-27 04:09 | 34.28492 | -12.47681 | 35999 ft | 453 kts | 206° |
| 2026-04-27 04:09 | 34.22870 | -12.51038 | 35992 ft | 454 kts | 206° |
| 2026-04-27 04:10 | 34.17205 | -12.54416 | 35989 ft | 454 kts | 206° |
| 2026-04-27 04:10 | 34.11524 | -12.57800 | 35990 ft | 454 kts | 206° |
| 2026-04-27 04:11 | 34.05897 | -12.61146 | 35989 ft | 453 kts | 206° |
| 2026-04-27 04:11 | 34.00228 | -12.64512 | 35986 ft | 453 kts | 206° |
| 2026-04-27 04:12 | 33.94589 | -12.67855 | 35984 ft | 453 kts | 205° |
| 2026-04-27 04:12 | 33.88958 | -12.71188 | 35983 ft | 453 kts | 206° |
| 2026-04-27 04:13 | 33.83271 | -12.74549 | 35984 ft | 454 kts | 206° |
| 2026-04-27 04:13 | 33.77637 | -12.77875 | 35987 ft | 454 kts | 206° |
| 2026-04-27 04:14 | 33.71955 | -12.81224 | 35987 ft | 453 kts | 206° |
| 2026-04-27 04:14 | 33.66332 | -12.84533 | 35989 ft | 453 kts | 206° |
| 2026-04-27 04:15 | 33.60670 | -12.87859 | 35989 ft | 453 kts | 206° |
| 2026-04-27 04:15 | 33.54990 | -12.91192 | 35991 ft | 453 kts | 206° |
| 2026-04-27 04:16 | 33.49356 | -12.94493 | 35991 ft | 453 kts | 206° |
| 2026-04-27 04:16 | 33.43689 | -12.97808 | 35992 ft | 454 kts | 206° |
| 2026-04-27 04:17 | 33.37993 | -13.01135 | 35994 ft | 454 kts | 206° |
| 2026-04-27 04:17 | 33.32318 | -13.04445 | 35995 ft | 454 kts | 206° |
| 2026-04-27 04:18 | 33.26648 | -13.07747 | 35997 ft | 454 kts | 206° |
| 2026-04-27 04:18 | 33.20978 | -13.11045 | 36000 ft | 454 kts | 206° |
| 2026-04-27 04:19 | 33.15326 | -13.14328 | 36006 ft | 453 kts | 206° |
| 2026-04-27 04:19 | 33.09653 | -13.17619 | 36003 ft | 453 kts | 206° |
| 2026-04-27 04:20 | 33.03975 | -13.20906 | 36001 ft | 453 kts | 206° |
| 2026-04-27 04:20 | 32.98341 | -13.24165 | 36003 ft | 454 kts | 206° |
| 2026-04-27 04:21 | 32.92641 | -13.27455 | 36006 ft | 454 kts | 206° |
| 2026-04-27 04:21 | 32.86948 | -13.30738 | 36014 ft | 455 kts | 206° |
| 2026-04-27 04:22 | 32.81273 | -13.34005 | 36025 ft | 454 kts | 206° |
| 2026-04-27 04:22 | 32.75587 | -13.37274 | 36013 ft | 454 kts | 206° |
| 2026-04-27 04:23 | 32.69915 | -13.40531 | 36003 ft | 454 kts | 206° |
| 2026-04-27 04:23 | 32.64253 | -13.43777 | 36003 ft | 454 kts | 206° |
| 2026-04-27 04:24 | 32.58522 | -13.47059 | 36002 ft | 455 kts | 206° |
| 2026-04-27 04:24 | 32.52846 | -13.50305 | 35998 ft | 455 kts | 206° |
| 2026-04-27 04:25 | 32.47134 | -13.53565 | 36000 ft | 455 kts | 206° |
| 2026-04-27 04:25 | 32.41452 | -13.56804 | 36003 ft | 455 kts | 206° |
| 2026-04-27 04:26 | 32.35746 | -13.60051 | 36003 ft | 455 kts | 206° |
| 2026-04-27 04:26 | 32.30041 | -13.63294 | 36005 ft | 456 kts | 206° |
| 2026-04-27 04:27 | 32.24300 | -13.66554 | 36005 ft | 456 kts | 205° |
| 2026-04-27 04:27 | 32.18609 | -13.69780 | 35999 ft | 456 kts | 205° |
| 2026-04-27 04:28 | 32.12875 | -13.73027 | 36000 ft | 456 kts | 205° |
| 2026-04-27 04:28 | 32.07178 | -13.76248 | 36006 ft | 456 kts | 205° |
| 2026-04-27 04:29 | 32.01434 | -13.79490 | 36008 ft | 457 kts | 205° |
| 2026-04-27 04:29 | 31.95691 | -13.82727 | 35996 ft | 458 kts | 205° |
| 2026-04-27 04:30 | 31.89965 | -13.85951 | 36000 ft | 457 kts | 205° |
| 2026-04-27 04:30 | 31.84215 | -13.89183 | 36003 ft | 456 kts | 205° |
| 2026-04-27 04:31 | 31.78499 | -13.92393 | 35987 ft | 457 kts | 205° |
| 2026-04-27 04:31 | 31.72787 | -13.95596 | 35987 ft | 457 kts | 205° |
| 2026-04-27 04:32 | 31.67061 | -13.98800 | 35994 ft | 457 kts | 205° |
| 2026-04-27 04:32 | 31.61294 | -14.02024 | 35987 ft | 457 kts | 205° |
| 2026-04-27 04:33 | 31.55590 | -14.05208 | 36010 ft | 457 kts | 205° |
| 2026-04-27 04:33 | 31.49849 | -14.08409 | 36023 ft | 458 kts | 205° |
| 2026-04-27 04:34 | 31.44090 | -14.11617 | 36014 ft | 457 kts | 205° |
| 2026-04-27 04:34 | 31.38354 | -14.14807 | 36006 ft | 456 kts | 205° |
| 2026-04-27 04:35 | 31.32644 | -14.17977 | 36008 ft | 456 kts | 205° |
| 2026-04-27 04:35 | 31.26939 | -14.21141 | 36012 ft | 456 kts | 205° |
| 2026-04-27 04:36 | 31.21181 | -14.24329 | 36014 ft | 456 kts | 205° |
| 2026-04-27 04:36 | 31.15454 | -14.27496 | 36003 ft | 457 kts | 205° |
| 2026-04-27 04:37 | 31.09698 | -14.30676 | 36034 ft | 457 kts | 206° |
| 2026-04-27 04:37 | 31.03978 | -14.33831 | 35997 ft | 456 kts | 206° |
| 2026-04-27 04:38 | 30.98225 | -14.37003 | 36012 ft | 456 kts | 206° |
| 2026-04-27 04:38 | 30.92524 | -14.40140 | 36014 ft | 456 kts | 206° |
| 2026-04-27 04:39 | 30.86799 | -14.43341 | 36016 ft | 457 kts | 207° |
| 2026-04-27 04:39 | 30.81098 | -14.46652 | 36011 ft | 456 kts | 207° |
| 2026-04-27 04:40 | 30.75421 | -14.49944 | 36020 ft | 457 kts | 207° |
| 2026-04-27 04:40 | 30.69722 | -14.53238 | 36004 ft | 457 kts | 207° |
| 2026-04-27 04:41 | 30.64048 | -14.56512 | 36011 ft | 457 kts | 207° |
| 2026-04-27 04:41 | 30.58364 | -14.59786 | 36015 ft | 458 kts | 207° |
| 2026-04-27 04:42 | 30.52664 | -14.63063 | 36013 ft | 458 kts | 207° |
| 2026-04-27 04:42 | 30.46922 | -14.66359 | 36007 ft | 458 kts | 206° |
| 2026-04-27 04:43 | 30.41206 | -14.69636 | 36012 ft | 459 kts | 207° |
| 2026-04-27 04:43 | 30.35507 | -14.72899 | 36008 ft | 459 kts | 207° |
| 2026-04-27 04:44 | 30.29798 | -14.76165 | 36008 ft | 459 kts | 207° |
| 2026-04-27 04:44 | 30.24071 | -14.79436 | 36008 ft | 459 kts | 207° |
| 2026-04-27 04:45 | 30.18341 | -14.82705 | 36007 ft | 460 kts | 207° |
| 2026-04-27 04:45 | 30.12610 | -14.85972 | 36011 ft | 460 kts | 207° |
| 2026-04-27 04:46 | 30.06866 | -14.89239 | 35993 ft | 460 kts | 207° |
| 2026-04-27 04:46 | 30.01113 | -14.92508 | 36007 ft | 461 kts | 207° |
| 2026-04-27 04:47 | 29.95352 | -14.95775 | 36013 ft | 461 kts | 207° |
| 2026-04-27 04:47 | 29.89610 | -14.99029 | 36008 ft | 461 kts | 207° |
| 2026-04-27 04:48 | 29.83856 | -15.02287 | 36002 ft | 461 kts | 207° |
| 2026-04-27 04:48 | 29.78057 | -15.05565 | 36013 ft | 461 kts | 207° |
| 2026-04-27 04:49 | 29.72330 | -15.08798 | 36016 ft | 461 kts | 207° |
| 2026-04-27 04:49 | 29.66583 | -15.12040 | 36019 ft | 461 kts | 207° |
| 2026-04-27 04:50 | 29.60783 | -15.15304 | 36016 ft | 461 kts | 207° |
| 2026-04-27 04:50 | 29.55028 | -15.18540 | 36018 ft | 462 kts | 207° |
| 2026-04-27 04:51 | 29.49278 | -15.21770 | 36017 ft | 462 kts | 208° |
| 2026-04-27 04:51 | 29.43507 | -15.25006 | 36022 ft | 463 kts | 208° |
| 2026-04-27 04:52 | 29.37696 | -15.28262 | 36019 ft | 462 kts | 208° |
| 2026-04-27 04:52 | 29.31924 | -15.31493 | 36018 ft | 463 kts | 208° |
| 2026-04-27 04:53 | 29.26161 | -15.34712 | 36011 ft | 463 kts | 208° |
| 2026-04-27 04:53 | 29.20351 | -15.37954 | 36015 ft | 464 kts | 208° |
| 2026-04-27 04:54 | 29.14533 | -15.41197 | 36020 ft | 465 kts | 208° |
| 2026-04-27 04:54 | 29.08727 | -15.44429 | 36013 ft | 465 kts | 209° |
| 2026-04-27 04:55 | 29.02908 | -15.47664 | 36016 ft | 465 kts | 208° |
| 2026-04-27 04:55 | 28.97108 | -15.50886 | 36025 ft | 465 kts | 209° |
| 2026-04-27 04:56 | 28.91302 | -15.54104 | 36020 ft | 465 kts | 209° |
| 2026-04-27 04:56 | 28.85475 | -15.57333 | 36018 ft | 465 kts | 209° |
| 2026-04-27 04:57 | 28.79636 | -15.60561 | 36018 ft | 466 kts | 210° |
| 2026-04-27 04:57 | 28.73834 | -15.63768 | 36023 ft | 466 kts | 210° |
| 2026-04-27 04:58 | 28.67983 | -15.66998 | 36021 ft | 467 kts | 209° |
| 2026-04-27 04:58 | 28.62122 | -15.70225 | 36013 ft | 468 kts | 210° |
| 2026-04-27 04:59 | 28.56276 | -15.73444 | 36006 ft | 467 kts | 210° |
| 2026-04-27 04:59 | 28.50438 | -15.76652 | 36021 ft | 468 kts | 210° |
| 2026-04-27 05:00 | 28.44566 | -15.79878 | 36009 ft | 468 kts | 210° |
| 2026-04-27 05:00 | 28.38707 | -15.83093 | 36011 ft | 468 kts | 210° |
| 2026-04-27 05:01 | 28.32816 | -15.86319 | 36008 ft | 469 kts | 210° |
| 2026-04-27 05:01 | 28.26959 | -15.89522 | 36017 ft | 470 kts | 211° |
| 2026-04-27 05:02 | 28.21065 | -15.92741 | 36019 ft | 469 kts | 211° |
| 2026-04-27 05:03 | 28.12209 | -15.97574 | 36019 ft | 470 kts | 211° |
| 2026-04-27 05:03 | 28.06326 | -16.00780 | 36025 ft | 470 kts | 211° |
| 2026-04-27 05:04 | 28.00420 | -16.03993 | 36024 ft | 470 kts | 212° |
| 2026-04-27 05:04 | 27.94553 | -16.07182 | 36028 ft | 471 kts | 212° |
| 2026-04-27 05:05 | 27.88632 | -16.10396 | 36023 ft | 471 kts | 212° |
| 2026-04-27 05:05 | 27.82719 | -16.13603 | 36018 ft | 471 kts | 212° |
| 2026-04-27 05:06 | 27.76852 | -16.16780 | 36012 ft | 470 kts | 212° |
| 2026-04-27 05:06 | 27.70947 | -16.19975 | 36011 ft | 471 kts | 212° |
| 2026-04-27 05:07 | 27.65016 | -16.23172 | 36020 ft | 471 kts | 212° |
| 2026-04-27 05:07 | 27.59089 | -16.26365 | 36024 ft | 471 kts | 213° |
| 2026-04-27 05:08 | 27.53194 | -16.29540 | 36020 ft | 471 kts | 212° |
| 2026-04-27 05:08 | 27.47293 | -16.32716 | 36018 ft | 470 kts | 213° |
| 2026-04-27 05:09 | 27.41381 | -16.35893 | 36021 ft | 471 kts | 213° |
| 2026-04-27 05:09 | 27.35484 | -16.39057 | 36021 ft | 472 kts | 213° |
| 2026-04-27 05:10 | 27.29560 | -16.42234 | 36023 ft | 472 kts | 213° |
| 2026-04-27 05:10 | 27.23619 | -16.45417 | 36023 ft | 471 kts | 213° |
| 2026-04-27 05:11 | 27.17681 | -16.48591 | 36021 ft | 471 kts | 213° |
| 2026-04-27 05:11 | 27.11788 | -16.51737 | 36024 ft | 470 kts | 214° |
| 2026-04-27 05:12 | 27.05884 | -16.54888 | 36025 ft | 472 kts | 213° |
| 2026-04-27 05:12 | 26.99956 | -16.58049 | 36025 ft | 473 kts | 214° |
| 2026-04-27 05:13 | 26.93999 | -16.61219 | 36025 ft | 472 kts | 214° |
| 2026-04-27 05:13 | 26.88080 | -16.64367 | 36023 ft | 472 kts | 214° |
| 2026-04-27 05:14 | 26.82158 | -16.67515 | 36028 ft | 473 kts | 213° |
| 2026-04-27 05:14 | 26.76198 | -16.70676 | 36024 ft | 472 kts | 213° |
| 2026-04-27 05:15 | 26.70298 | -16.73800 | 36025 ft | 472 kts | 213° |
| 2026-04-27 05:15 | 26.64339 | -16.76956 | 36025 ft | 472 kts | 213° |
| 2026-04-27 05:16 | 26.58438 | -16.80074 | 36024 ft | 472 kts | 213° |
| 2026-04-27 05:16 | 26.52486 | -16.83216 | 36025 ft | 471 kts | 213° |
| 2026-04-27 05:17 | 26.46557 | -16.86345 | 36028 ft | 471 kts | 214° |
| 2026-04-27 05:17 | 26.40632 | -16.89465 | 36024 ft | 471 kts | 214° |
| 2026-04-27 05:18 | 26.34709 | -16.92581 | 36170 ft | 470 kts | 214° |
| 2026-04-27 05:18 | 26.28800 | -16.95685 | 36041 ft | 470 kts | 214° |
| 2026-04-27 05:19 | 26.22885 | -16.98791 | 36025 ft | 470 kts | 214° |
| 2026-04-27 05:19 | 26.16947 | -17.01906 | 36016 ft | 469 kts | 214° |
| 2026-04-27 05:20 | 26.11049 | -17.04994 | 36014 ft | 469 kts | 214° |
| 2026-04-27 05:20 | 26.05139 | -17.08088 | 36016 ft | 469 kts | 214° |
| 2026-04-27 05:21 | 25.99248 | -17.11166 | 36015 ft | 468 kts | 214° |
| 2026-04-27 05:21 | 25.93362 | -17.14239 | 36014 ft | 467 kts | 214° |
| 2026-04-27 05:22 | 25.87497 | -17.17299 | 36017 ft | 467 kts | 214° |
| 2026-04-27 05:22 | 25.81605 | -17.20369 | 36017 ft | 467 kts | 214° |
| 2026-04-27 05:23 | 25.75734 | -17.23426 | 36019 ft | 468 kts | 213° |
| 2026-04-27 05:23 | 25.69817 | -17.26499 | 36021 ft | 468 kts | 213° |
| 2026-04-27 05:24 | 25.63914 | -17.29563 | 36022 ft | 467 kts | 213° |
| 2026-04-27 05:24 | 25.58037 | -17.32611 | 36023 ft | 466 kts | 213° |
| 2026-04-27 05:25 | 25.52200 | -17.35636 | 36024 ft | 467 kts | 213° |
| 2026-04-27 05:25 | 25.46303 | -17.38687 | 36023 ft | 466 kts | 214° |
| 2026-04-27 05:26 | 25.40422 | -17.41728 | 36023 ft | 465 kts | 213° |
| 2026-04-27 05:26 | 25.34548 | -17.44762 | 36025 ft | 466 kts | 213° |
| 2026-04-27 05:27 | 25.28669 | -17.47793 | 36023 ft | 465 kts | 214° |
| 2026-04-27 05:27 | 25.22829 | -17.50804 | 36022 ft | 466 kts | 214° |
| 2026-04-27 05:28 | 25.16959 | -17.53826 | 36023 ft | 465 kts | 213° |
| 2026-04-27 05:28 | 25.11103 | -17.56839 | 36023 ft | 464 kts | 213° |
| 2026-04-27 05:29 | 25.05258 | -17.59841 | 36024 ft | 464 kts | 213° |
| 2026-04-27 05:29 | 24.99478 | -17.63001 | 36024 ft | 460 kts | 218° |
| 2026-04-27 05:30 | 24.94034 | -17.66646 | 36027 ft | 456 kts | 220° |
| 2026-04-27 05:30 | 24.88661 | -17.70356 | 36026 ft | 457 kts | 220° |
| 2026-04-27 05:31 | 24.83295 | -17.74058 | 36030 ft | 456 kts | 220° |
| 2026-04-27 05:31 | 24.77884 | -17.77787 | 36033 ft | 456 kts | 220° |
| 2026-04-27 05:32 | 24.72527 | -17.81472 | 36031 ft | 456 kts | 220° |
| 2026-04-27 05:32 | 24.67144 | -17.85176 | 36033 ft | 457 kts | 220° |
| 2026-04-27 05:33 | 24.61727 | -17.88894 | 36031 ft | 456 kts | 220° |
| 2026-04-27 05:33 | 24.56362 | -17.92574 | 36037 ft | 456 kts | 220° |
| 2026-04-27 05:34 | 24.50963 | -17.96274 | 36038 ft | 457 kts | 220° |
| 2026-04-27 05:34 | 24.45569 | -17.99966 | 36034 ft | 456 kts | 221° |
| 2026-04-27 05:35 | 24.40196 | -18.03641 | 36034 ft | 455 kts | 220° |
| 2026-04-27 05:35 | 24.34821 | -18.07315 | 36035 ft | 455 kts | 220° |
| 2026-04-27 05:36 | 24.29455 | -18.10978 | 36037 ft | 454 kts | 220° |
| 2026-04-27 05:36 | 24.24081 | -18.14642 | 36040 ft | 455 kts | 220° |
| 2026-04-27 05:37 | 24.18737 | -18.18283 | 36040 ft | 455 kts | 220° |
| 2026-04-27 05:37 | 24.13365 | -18.21939 | 36041 ft | 454 kts | 220° |
| 2026-04-27 05:38 | 24.08001 | -18.25583 | 36043 ft | 454 kts | 220° |
| 2026-04-27 05:38 | 24.02629 | -18.29232 | 36038 ft | 453 kts | 220° |
| 2026-04-27 05:39 | 23.97272 | -18.32868 | 36040 ft | 453 kts | 220° |
| 2026-04-27 05:39 | 23.91909 | -18.36502 | 36041 ft | 453 kts | 220° |
| 2026-04-27 05:40 | 23.86573 | -18.40115 | 36031 ft | 453 kts | 220° |
| 2026-04-27 05:40 | 23.81193 | -18.43755 | 36037 ft | 453 kts | 220° |
| 2026-04-27 05:41 | 23.75840 | -18.47373 | 36035 ft | 453 kts | 220° |
| 2026-04-27 05:41 | 23.70502 | -18.50976 | 36038 ft | 453 kts | 220° |
| 2026-04-27 05:42 | 23.65130 | -18.54600 | 36035 ft | 453 kts | 220° |
| 2026-04-27 05:42 | 23.59764 | -18.58215 | 36038 ft | 453 kts | 220° |
| 2026-04-27 05:43 | 23.54419 | -18.61815 | 36037 ft | 453 kts | 220° |
| 2026-04-27 05:43 | 23.49044 | -18.65430 | 36040 ft | 453 kts | 220° |
| 2026-04-27 05:44 | 23.43683 | -18.69033 | 36037 ft | 453 kts | 220° |
| 2026-04-27 05:44 | 23.38311 | -18.72639 | 36036 ft | 453 kts | 220° |
| 2026-04-27 05:45 | 23.32950 | -18.76232 | 36035 ft | 453 kts | 220° |
| 2026-04-27 05:45 | 23.27602 | -18.79816 | 36033 ft | 452 kts | 220° |
| 2026-04-27 05:46 | 23.22231 | -18.83411 | 36032 ft | 452 kts | 220° |
| 2026-04-27 05:46 | 23.16895 | -18.86979 | 36030 ft | 453 kts | 220° |
| 2026-04-27 05:47 | 23.11515 | -18.90573 | 36032 ft | 453 kts | 220° |
| 2026-04-27 05:47 | 23.06131 | -18.94165 | 36033 ft | 453 kts | 220° |
| 2026-04-27 05:48 | 23.00765 | -18.97744 | 36033 ft | 454 kts | 220° |
| 2026-04-27 05:48 | 22.95378 | -19.01331 | 36033 ft | 453 kts | 220° |
| 2026-04-27 05:49 | 22.90025 | -19.04893 | 36028 ft | 453 kts | 220° |
| 2026-04-27 05:49 | 22.84648 | -19.08467 | 36029 ft | 453 kts | 220° |
| 2026-04-27 05:50 | 22.79293 | -19.12024 | 36034 ft | 453 kts | 220° |
| 2026-04-27 05:50 | 22.73908 | -19.15598 | 36031 ft | 453 kts | 220° |
| 2026-04-27 05:51 | 22.68544 | -19.19153 | 36030 ft | 453 kts | 220° |
| 2026-04-27 05:51 | 22.63147 | -19.22730 | 36033 ft | 452 kts | 220° |
| 2026-04-27 05:52 | 22.57796 | -19.26270 | 36036 ft | 452 kts | 220° |
| 2026-04-27 05:52 | 22.52426 | -19.29821 | 36030 ft | 452 kts | 220° |
| 2026-04-27 05:53 | 22.47051 | -19.33372 | 36029 ft | 452 kts | 220° |
| 2026-04-27 05:53 | 22.41705 | -19.36899 | 36030 ft | 452 kts | 220° |
| 2026-04-27 05:54 | 22.36330 | -19.40446 | 36029 ft | 452 kts | 220° |
| 2026-04-27 05:54 | 22.30953 | -19.43986 | 36033 ft | 451 kts | 220° |
| 2026-04-27 05:55 | 22.25623 | -19.47495 | 36027 ft | 451 kts | 220° |
| 2026-04-27 05:55 | 22.20241 | -19.51037 | 36029 ft | 452 kts | 220° |
| 2026-04-27 05:56 | 22.14875 | -19.54561 | 36031 ft | 451 kts | 220° |
| 2026-04-27 05:56 | 22.09537 | -19.58065 | 36029 ft | 451 kts | 220° |
| 2026-04-27 05:57 | 22.04168 | -19.61584 | 36025 ft | 451 kts | 220° |
| 2026-04-27 05:57 | 21.98782 | -19.65107 | 36031 ft | 451 kts | 220° |
| 2026-04-27 05:58 | 21.93454 | -19.68595 | 36031 ft | 450 kts | 220° |
| 2026-04-27 05:58 | 21.88084 | -19.72105 | 36026 ft | 451 kts | 220° |
| 2026-04-27 05:59 | 21.82731 | -19.75601 | 36030 ft | 450 kts | 220° |
| 2026-04-27 05:59 | 21.77360 | -19.79107 | 36031 ft | 451 kts | 220° |
| 2026-04-27 06:00 | 21.69311 | -19.84357 | 36030 ft | 452 kts | 220° |
| 2026-04-27 06:00 | 21.63918 | -19.87867 | 36026 ft | 453 kts | 220° |
| 2026-04-27 06:01 | 21.58529 | -19.91375 | 36026 ft | 452 kts | 220° |
| 2026-04-27 06:01 | 21.53132 | -19.94883 | 36028 ft | 452 kts | 220° |
| 2026-04-27 06:02 | 21.47750 | -19.98381 | 36030 ft | 452 kts | 220° |
| 2026-04-27 06:02 | 21.42383 | -20.01866 | 36033 ft | 454 kts | 220° |
| 2026-04-27 06:03 | 21.36983 | -20.05364 | 36039 ft | 453 kts | 220° |
| 2026-04-27 06:03 | 21.31569 | -20.08870 | 36043 ft | 452 kts | 221° |
| 2026-04-27 06:04 | 21.26197 | -20.12350 | 36054 ft | 454 kts | 221° |
| 2026-04-27 06:04 | 21.20768 | -20.15861 | 36051 ft | 453 kts | 221° |
| 2026-04-27 06:05 | 21.15377 | -20.19344 | 36054 ft | 453 kts | 221° |
| 2026-04-27 06:05 | 21.09968 | -20.22836 | 36054 ft | 454 kts | 221° |
| 2026-04-27 06:06 | 21.04556 | -20.26328 | 36054 ft | 455 kts | 221° |
| 2026-04-27 06:06 | 20.99149 | -20.29813 | 36047 ft | 454 kts | 221° |
| 2026-04-27 06:07 | 20.93742 | -20.33296 | 36045 ft | 457 kts | 221° |
| 2026-04-27 06:07 | 20.88298 | -20.36798 | 36032 ft | 457 kts | 221° |
| 2026-04-27 06:08 | 20.82835 | -20.40311 | 36035 ft | 457 kts | 221° |
| 2026-04-27 06:08 | 20.77378 | -20.43816 | 36038 ft | 456 kts | 221° |
| 2026-04-27 06:09 | 20.71962 | -20.47290 | 36036 ft | 456 kts | 221° |
| 2026-04-27 06:09 | 20.66519 | -20.50784 | 36040 ft | 457 kts | 221° |
| 2026-04-27 06:10 | 20.61037 | -20.54296 | 36045 ft | 457 kts | 221° |
| 2026-04-27 06:10 | 20.55596 | -20.57777 | 36039 ft | 455 kts | 221° |
| 2026-04-27 06:11 | 20.50160 | -20.61257 | 36042 ft | 456 kts | 221° |
| 2026-04-27 06:11 | 20.44697 | -20.64749 | 36040 ft | 457 kts | 221° |
| 2026-04-27 06:12 | 20.39242 | -20.68234 | 36048 ft | 458 kts | 221° |
| 2026-04-27 06:12 | 20.33745 | -20.71723 | 36038 ft | 459 kts | 221° |
| 2026-04-27 06:13 | 20.28266 | -20.75148 | 36048 ft | 458 kts | 220° |
| 2026-04-27 06:13 | 20.22759 | -20.78589 | 36043 ft | 458 kts | 220° |
| 2026-04-27 06:14 | 20.17272 | -20.82017 | 36041 ft | 458 kts | 221° |
| 2026-04-27 06:14 | 20.11745 | -20.85471 | 36047 ft | 459 kts | 220° |
| 2026-04-27 06:15 | 20.06255 | -20.88900 | 36046 ft | 459 kts | 221° |
| 2026-04-27 06:15 | 20.00753 | -20.92333 | 36051 ft | 459 kts | 220° |
| 2026-04-27 06:16 | 19.95240 | -20.95771 | 36048 ft | 458 kts | 221° |
| 2026-04-27 06:16 | 19.89726 | -20.99206 | 36051 ft | 459 kts | 221° |
| 2026-04-27 06:17 | 19.84209 | -21.02641 | 36046 ft | 459 kts | 220° |
| 2026-04-27 06:17 | 19.78701 | -21.06065 | 36044 ft | 458 kts | 220° |
| 2026-04-27 06:18 | 19.73221 | -21.09470 | 36044 ft | 459 kts | 220° |
| 2026-04-27 06:18 | 19.67701 | -21.12899 | 36042 ft | 460 kts | 220° |
| 2026-04-27 06:19 | 19.62179 | -21.16327 | 36042 ft | 459 kts | 220° |
| 2026-04-27 06:19 | 19.56665 | -21.19743 | 36039 ft | 460 kts | 220° |
| 2026-04-27 06:20 | 19.51131 | -21.23171 | 36044 ft | 460 kts | 220° |
| 2026-04-27 06:20 | 19.45592 | -21.26600 | 36040 ft | 460 kts | 220° |
| 2026-04-27 06:21 | 19.40088 | -21.30004 | 36041 ft | 459 kts | 220° |
| 2026-04-27 06:21 | 19.34548 | -21.33429 | 36039 ft | 459 kts | 220° |
| 2026-04-27 06:22 | 19.29035 | -21.36833 | 36043 ft | 459 kts | 220° |
| 2026-04-27 06:22 | 19.23503 | -21.40244 | 36042 ft | 459 kts | 220° |
| 2026-04-27 06:23 | 19.17984 | -21.43649 | 36042 ft | 459 kts | 220° |
| 2026-04-27 06:23 | 19.12471 | -21.47044 | 36038 ft | 461 kts | 220° |
| 2026-04-27 06:24 | 19.06926 | -21.50458 | 36045 ft | 460 kts | 219° |
| 2026-04-27 06:24 | 19.01402 | -21.53854 | 36038 ft | 460 kts | 220° |
| 2026-04-27 06:25 | 18.95831 | -21.57280 | 36040 ft | 462 kts | 220° |
| 2026-04-27 06:25 | 18.90281 | -21.60689 | 36041 ft | 461 kts | 219° |
| 2026-04-27 06:26 | 18.84751 | -21.64081 | 36043 ft | 461 kts | 219° |
| 2026-04-27 06:26 | 18.79155 | -21.67513 | 36044 ft | 462 kts | 219° |
| 2026-04-27 06:27 | 18.73621 | -21.70903 | 36037 ft | 461 kts | 219° |
| 2026-04-27 06:27 | 18.68039 | -21.74321 | 36041 ft | 462 kts | 219° |
| 2026-04-27 06:28 | 18.62490 | -21.77714 | 36043 ft | 463 kts | 219° |
| 2026-04-27 06:28 | 18.56903 | -21.81130 | 36037 ft | 462 kts | 219° |
| 2026-04-27 06:29 | 18.51354 | -21.84520 | 36046 ft | 462 kts | 219° |
| 2026-04-27 06:29 | 18.45775 | -21.87925 | 36040 ft | 463 kts | 218° |
| 2026-04-27 06:30 | 18.40205 | -21.91321 | 36042 ft | 463 kts | 218° |
| 2026-04-27 06:30 | 18.34648 | -21.94709 | 36038 ft | 463 kts | 218° |
| 2026-04-27 06:31 | 18.29032 | -21.98127 | 36037 ft | 464 kts | 218° |
| 2026-04-27 06:31 | 18.23454 | -22.01523 | 36037 ft | 464 kts | 218° |
| 2026-04-27 06:32 | 18.17847 | -22.04930 | 36037 ft | 463 kts | 218° |
| 2026-04-27 06:32 | 18.12268 | -22.08322 | 36033 ft | 464 kts | 218° |
| 2026-04-27 06:33 | 18.06674 | -22.11717 | 36034 ft | 464 kts | 218° |
| 2026-04-27 06:33 | 18.01101 | -22.15098 | 36038 ft | 465 kts | 218° |
| 2026-04-27 06:34 | 17.95487 | -22.18502 | 36035 ft | 464 kts | 218° |
| 2026-04-27 06:34 | 17.89897 | -22.21888 | 36035 ft | 464 kts | 218° |
| 2026-04-27 06:35 | 17.84282 | -22.25288 | 36036 ft | 465 kts | 218° |
| 2026-04-27 06:35 | 17.78697 | -22.28665 | 36037 ft | 465 kts | 218° |
| 2026-04-27 06:36 | 17.73103 | -22.32047 | 36045 ft | 464 kts | 218° |
| 2026-04-27 06:36 | 17.67480 | -22.35441 | 36047 ft | 463 kts | 218° |
| 2026-04-27 06:37 | 17.61912 | -22.38805 | 36047 ft | 463 kts | 218° |
| 2026-04-27 06:37 | 17.56330 | -22.42172 | 36048 ft | 463 kts | 218° |
| 2026-04-27 06:38 | 17.50735 | -22.45542 | 36046 ft | 463 kts | 218° |
| 2026-04-27 06:38 | 17.45133 | -22.48917 | 36048 ft | 463 kts | 218° |
| 2026-04-27 06:39 | 17.39565 | -22.52267 | 36048 ft | 463 kts | 218° |
| 2026-04-27 06:39 | 17.33951 | -22.55645 | 36046 ft | 464 kts | 218° |
| 2026-04-27 06:40 | 17.28366 | -22.59002 | 36043 ft | 464 kts | 217° |
| 2026-04-27 06:40 | 17.22757 | -22.62370 | 36045 ft | 464 kts | 218° |
| 2026-04-27 06:41 | 17.17168 | -22.65724 | 36049 ft | 464 kts | 217° |
| 2026-04-27 06:41 | 17.11572 | -22.69082 | 36046 ft | 464 kts | 217° |
| 2026-04-27 06:42 | 17.05973 | -22.72437 | 36044 ft | 464 kts | 217° |
| 2026-04-27 06:42 | 17.00351 | -22.75803 | 36045 ft | 465 kts | 217° |
| 2026-04-27 06:43 | 16.94763 | -22.79146 | 36045 ft | 463 kts | 217° |
| 2026-04-27 06:43 | 16.89147 | -22.82504 | 36046 ft | 463 kts | 217° |
| 2026-04-27 06:44 | 16.83540 | -22.85857 | 36047 ft | 464 kts | 217° |
| 2026-04-27 06:44 | 16.77975 | -22.89182 | 36046 ft | 463 kts | 217° |
| 2026-04-27 06:45 | 16.72369 | -22.92528 | 36047 ft | 464 kts | 217° |
| 2026-04-27 06:45 | 16.66741 | -22.95884 | 36048 ft | 464 kts | 217° |
| 2026-04-27 06:46 | 16.61139 | -22.99223 | 36046 ft | 464 kts | 216° |
| 2026-04-27 06:46 | 16.55552 | -23.02550 | 36046 ft | 463 kts | 216° |
| 2026-04-27 06:47 | 16.49935 | -23.05893 | 36046 ft | 463 kts | 216° |
| 2026-04-27 06:47 | 16.44355 | -23.09211 | 36045 ft | 463 kts | 216° |
| 2026-04-27 06:48 | 16.38739 | -23.12550 | 36047 ft | 463 kts | 216° |
| 2026-04-27 06:48 | 16.33161 | -23.15865 | 36053 ft | 463 kts | 216° |
| 2026-04-27 06:49 | 16.27531 | -23.19206 | 36053 ft | 463 kts | 216° |
| 2026-04-27 06:49 | 16.21962 | -23.22510 | 36051 ft | 464 kts | 216° |
| 2026-04-27 06:50 | 16.16316 | -23.25856 | 36054 ft | 463 kts | 216° |
| 2026-04-27 06:50 | 16.10717 | -23.29175 | 36054 ft | 464 kts | 216° |
| 2026-04-27 06:51 | 16.05118 | -23.32489 | 36053 ft | 464 kts | 216° |
| 2026-04-27 06:51 | 15.99484 | -23.35823 | 36053 ft | 464 kts | 215° |
| 2026-04-27 06:52 | 15.93898 | -23.39125 | 36054 ft | 464 kts | 216° |
| 2026-04-27 06:52 | 15.88278 | -23.42446 | 36052 ft | 464 kts | 215° |
| 2026-04-27 06:53 | 15.82632 | -23.45779 | 36052 ft | 464 kts | 215° |
| 2026-04-27 06:53 | 15.77014 | -23.49095 | 36048 ft | 465 kts | 215° |
| 2026-04-27 06:54 | 15.71423 | -23.52392 | 36047 ft | 464 kts | 215° |
| 2026-04-27 06:54 | 15.65773 | -23.55722 | 36046 ft | 464 kts | 215° |
| 2026-04-27 06:55 | 15.60162 | -23.59028 | 36046 ft | 465 kts | 215° |
| 2026-04-27 06:55 | 15.54533 | -23.62341 | 36045 ft | 465 kts | 215° |
| 2026-04-27 06:56 | 15.48922 | -23.65642 | 36047 ft | 465 kts | 214° |
| 2026-04-27 06:56 | 15.43267 | -23.68966 | 36045 ft | 466 kts | 214° |
| 2026-04-27 06:57 | 15.37636 | -23.72275 | 36045 ft | 465 kts | 214° |
| 2026-04-27 06:57 | 15.32004 | -23.75582 | 36046 ft | 465 kts | 214° |
| 2026-04-27 06:58 | 15.23548 | -23.80541 | 36048 ft | 466 kts | 214° |
| 2026-04-27 06:59 | 15.17891 | -23.83858 | 36041 ft | 465 kts | 214° |
| 2026-04-27 06:59 | 15.12254 | -23.87160 | 36030 ft | 465 kts | 214° |
| 2026-04-27 07:00 | 15.06627 | -23.90455 | 36024 ft | 466 kts | 213° |
| 2026-04-27 07:00 | 15.00956 | -23.93773 | 36021 ft | 466 kts | 213° |
| 2026-04-27 07:01 | 14.95333 | -23.97062 | 36015 ft | 466 kts | 213° |
| 2026-04-27 07:01 | 14.89699 | -24.00354 | 36015 ft | 466 kts | 213° |
| 2026-04-27 07:02 | 14.84030 | -24.03665 | 36015 ft | 466 kts | 213° |
| 2026-04-27 07:02 | 14.78376 | -24.06967 | 36017 ft | 466 kts | 213° |
| 2026-04-27 07:03 | 14.72735 | -24.10256 | 36016 ft | 466 kts | 213° |
| 2026-04-27 07:03 | 14.67084 | -24.13549 | 36016 ft | 466 kts | 213° |
| 2026-04-27 07:04 | 14.61435 | -24.16841 | 36018 ft | 466 kts | 213° |
| 2026-04-27 07:04 | 14.55803 | -24.20121 | 36018 ft | 466 kts | 213° |
| 2026-04-27 07:05 | 14.50146 | -24.23414 | 36018 ft | 465 kts | 213° |
| 2026-04-27 07:05 | 14.44502 | -24.26697 | 36017 ft | 465 kts | 213° |
| 2026-04-27 07:06 | 14.38847 | -24.29984 | 36016 ft | 465 kts | 213° |
| 2026-04-27 07:06 | 14.33218 | -24.33254 | 36016 ft | 465 kts | 213° |
| 2026-04-27 07:07 | 14.27575 | -24.36530 | 36016 ft | 466 kts | 213° |
| 2026-04-27 07:07 | 14.21920 | -24.39812 | 36016 ft | 466 kts | 213° |
| 2026-04-27 07:08 | 14.16265 | -24.43092 | 36016 ft | 466 kts | 213° |
| 2026-04-27 07:08 | 14.10609 | -24.46371 | 36016 ft | 465 kts | 213° |
| 2026-04-27 07:09 | 14.04954 | -24.49647 | 36014 ft | 465 kts | 213° |
| 2026-04-27 07:09 | 13.99323 | -24.52907 | 36014 ft | 465 kts | 213° |
| 2026-04-27 07:10 | 13.93678 | -24.56175 | 36012 ft | 465 kts | 213° |
| 2026-04-27 07:10 | 13.88034 | -24.59438 | 36011 ft | 466 kts | 213° |
| 2026-04-27 07:11 | 13.82363 | -24.62667 | 36012 ft | 465 kts | 212° |
| 2026-04-27 07:11 | 13.76669 | -24.65884 | 36015 ft | 465 kts | 212° |
| 2026-04-27 07:12 | 13.70984 | -24.69099 | 36012 ft | 465 kts | 212° |
| 2026-04-27 07:12 | 13.65319 | -24.72303 | 36012 ft | 465 kts | 212° |
| 2026-04-27 07:13 | 13.59644 | -24.75510 | 36012 ft | 465 kts | 212° |
| 2026-04-27 07:13 | 13.53960 | -24.78722 | 36011 ft | 466 kts | 212° |
| 2026-04-27 07:14 | 13.48286 | -24.81927 | 36012 ft | 465 kts | 212° |
| 2026-04-27 07:14 | 13.42615 | -24.85128 | 36012 ft | 465 kts | 212° |
| 2026-04-27 07:15 | 13.36937 | -24.88332 | 36011 ft | 465 kts | 212° |
| 2026-04-27 07:15 | 13.31290 | -24.91516 | 36013 ft | 465 kts | 212° |
| 2026-04-27 07:16 | 13.25597 | -24.94725 | 36011 ft | 465 kts | 212° |
| 2026-04-27 07:16 | 13.19948 | -24.97908 | 36013 ft | 464 kts | 212° |
| 2026-04-27 07:17 | 13.14283 | -25.01099 | 36011 ft | 464 kts | 211° |
| 2026-04-27 07:17 | 13.08585 | -25.04305 | 36011 ft | 464 kts | 211° |
| 2026-04-27 07:18 | 13.02920 | -25.07490 | 36012 ft | 464 kts | 212° |
| 2026-04-27 07:18 | 12.97283 | -25.10659 | 36013 ft | 465 kts | 211° |
| 2026-04-27 07:19 | 12.91582 | -25.13862 | 36013 ft | 465 kts | 212° |
| 2026-04-27 07:19 | 12.85892 | -25.17057 | 36012 ft | 465 kts | 212° |
| 2026-04-27 07:20 | 12.80246 | -25.20226 | 36013 ft | 466 kts | 211° |
| 2026-04-27 07:20 | 12.74556 | -25.23419 | 36012 ft | 466 kts | 211° |
| 2026-04-27 07:21 | 12.68835 | -25.26627 | 36013 ft | 467 kts | 211° |
| 2026-04-27 07:21 | 12.63154 | -25.29811 | 36013 ft | 467 kts | 211° |
| 2026-04-27 07:22 | 12.57411 | -25.33026 | 36013 ft | 466 kts | 211° |
| 2026-04-27 07:22 | 12.51722 | -25.36211 | 36012 ft | 467 kts | 211° |
| 2026-04-27 07:23 | 12.46020 | -25.39402 | 36013 ft | 467 kts | 211° |
| 2026-04-27 07:23 | 12.40306 | -25.42598 | 36013 ft | 468 kts | 211° |
| 2026-04-27 07:24 | 12.34607 | -25.45784 | 36013 ft | 468 kts | 211° |
| 2026-04-27 07:24 | 12.28866 | -25.48990 | 36013 ft | 467 kts | 211° |
| 2026-04-27 07:25 | 12.23180 | -25.52165 | 36011 ft | 467 kts | 211° |
| 2026-04-27 07:25 | 12.17449 | -25.55365 | 36006 ft | 468 kts | 211° |
| 2026-04-27 07:26 | 12.11721 | -25.58559 | 36002 ft | 468 kts | 211° |
| 2026-04-27 07:26 | 12.05997 | -25.61751 | 35996 ft | 468 kts | 211° |
| 2026-04-27 07:27 | 12.00273 | -25.64942 | 35993 ft | 468 kts | 211° |
| 2026-04-27 07:27 | 11.94566 | -25.68122 | 35993 ft | 469 kts | 211° |
| 2026-04-27 07:28 | 11.88819 | -25.71320 | 35992 ft | 468 kts | 210° |
| 2026-04-27 07:28 | 11.83089 | -25.74508 | 35992 ft | 468 kts | 211° |
| 2026-04-27 07:29 | 11.77361 | -25.77696 | 35992 ft | 469 kts | 211° |
| 2026-04-27 07:29 | 11.71649 | -25.80870 | 35992 ft | 468 kts | 211° |
| 2026-04-27 07:30 | 11.65919 | -25.84054 | 35992 ft | 468 kts | 210° |
| 2026-04-27 07:30 | 11.60199 | -25.87233 | 35992 ft | 468 kts | 210° |
| 2026-04-27 07:31 | 11.54492 | -25.90399 | 35996 ft | 467 kts | 210° |
| 2026-04-27 07:31 | 11.48745 | -25.93590 | 36000 ft | 468 kts | 210° |
| 2026-04-27 07:32 | 11.43024 | -25.96762 | 36002 ft | 468 kts | 210° |
| 2026-04-27 07:32 | 11.37327 | -25.99922 | 36000 ft | 468 kts | 210° |
| 2026-04-27 07:33 | 11.31585 | -26.03102 | 36001 ft | 468 kts | 210° |
| 2026-04-27 07:33 | 11.25867 | -26.06271 | 36000 ft | 468 kts | 210° |
| 2026-04-27 07:34 | 11.20144 | -26.09438 | 35997 ft | 468 kts | 210° |
| 2026-04-27 07:34 | 11.14418 | -26.12607 | 35996 ft | 467 kts | 210° |
| 2026-04-27 07:35 | 11.08698 | -26.15772 | 35994 ft | 468 kts | 210° |
| 2026-04-27 07:35 | 11.03002 | -26.18920 | 35995 ft | 468 kts | 210° |
| 2026-04-27 07:36 | 10.97266 | -26.22090 | 35992 ft | 468 kts | 210° |
| 2026-04-27 07:36 | 10.91532 | -26.25257 | 35992 ft | 468 kts | 210° |
| 2026-04-27 07:37 | 10.85793 | -26.28426 | 35992 ft | 468 kts | 210° |
| 2026-04-27 07:37 | 10.80062 | -26.31590 | 35991 ft | 468 kts | 210° |
| 2026-04-27 07:38 | 10.74351 | -26.34741 | 35991 ft | 468 kts | 210° |
| 2026-04-27 07:38 | 10.68601 | -26.37911 | 35992 ft | 468 kts | 210° |
| 2026-04-27 07:39 | 10.62889 | -26.41060 | 35992 ft | 468 kts | 210° |
| 2026-04-27 07:39 | 10.57122 | -26.44236 | 35996 ft | 468 kts | 210° |
| 2026-04-27 07:40 | 10.51394 | -26.47390 | 35996 ft | 469 kts | 210° |
| 2026-04-27 07:40 | 10.45672 | -26.50540 | 36000 ft | 469 kts | 210° |
| 2026-04-27 07:41 | 10.39899 | -26.53718 | 36000 ft | 469 kts | 210° |
| 2026-04-27 07:41 | 10.34173 | -26.56867 | 35997 ft | 468 kts | 209° |
| 2026-04-27 07:42 | 10.28470 | -26.60003 | 35997 ft | 468 kts | 209° |
| 2026-04-27 07:42 | 10.22739 | -26.63152 | 35996 ft | 468 kts | 210° |
| 2026-04-27 07:43 | 10.17003 | -26.66303 | 35996 ft | 468 kts | 209° |
| 2026-04-27 07:43 | 10.11249 | -26.69463 | 35991 ft | 469 kts | 209° |
| 2026-04-27 07:44 | 10.05493 | -26.72622 | 35990 ft | 469 kts | 209° |
| 2026-04-27 07:44 | 9.99774 | -26.75760 | 35992 ft | 469 kts | 209° |
| 2026-04-27 07:45 | 9.94016 | -26.78917 | 35997 ft | 468 kts | 209° |
| 2026-04-27 07:45 | 9.88294 | -26.82055 | 36009 ft | 467 kts | 209° |
| 2026-04-27 07:46 | 9.82583 | -26.85185 | 36012 ft | 467 kts | 209° |
| 2026-04-27 07:46 | 9.76833 | -26.88335 | 36011 ft | 467 kts | 208° |
| 2026-04-27 07:47 | 9.71124 | -26.91460 | 36015 ft | 467 kts | 208° |
| 2026-04-27 07:47 | 9.65376 | -26.94606 | 36014 ft | 467 kts | 208° |
| 2026-04-27 07:48 | 9.59673 | -26.97726 | 36015 ft | 466 kts | 208° |
| 2026-04-27 07:48 | 9.53969 | -27.00847 | 36014 ft | 466 kts | 208° |
| 2026-04-27 07:49 | 9.48238 | -27.03981 | 36007 ft | 466 kts | 208° |
| 2026-04-27 07:49 | 9.42539 | -27.07095 | 36010 ft | 466 kts | 208° |
| 2026-04-27 07:50 | 9.36828 | -27.10214 | 36012 ft | 467 kts | 208° |
| 2026-04-27 07:50 | 9.31079 | -27.13353 | 36012 ft | 468 kts | 208° |
| 2026-04-27 07:51 | 9.25353 | -27.16480 | 36013 ft | 467 kts | 208° |
| 2026-04-27 07:51 | 9.19640 | -27.19598 | 36013 ft | 467 kts | 208° |
| 2026-04-27 07:52 | 9.13879 | -27.22740 | 36013 ft | 467 kts | 208° |
| 2026-04-27 07:52 | 9.08169 | -27.25854 | 36013 ft | 467 kts | 208° |
| 2026-04-27 07:53 | 9.02451 | -27.28971 | 36012 ft | 467 kts | 208° |
| 2026-04-27 07:53 | 8.96718 | -27.32095 | 36013 ft | 468 kts | 208° |
| 2026-04-27 07:54 | 8.90979 | -27.35222 | 36011 ft | 467 kts | 208° |
| 2026-04-27 07:54 | 8.85241 | -27.38344 | 36011 ft | 467 kts | 208° |
| 2026-04-27 07:55 | 8.79530 | -27.41451 | 36010 ft | 467 kts | 208° |
| 2026-04-27 07:55 | 8.73791 | -27.44574 | 36009 ft | 467 kts | 207° |
| 2026-04-27 07:56 | 8.68058 | -27.47692 | 36006 ft | 468 kts | 207° |
| 2026-04-27 07:56 | 8.62319 | -27.50812 | 36006 ft | 468 kts | 207° |
| 2026-04-27 07:57 | 8.56597 | -27.53923 | 36005 ft | 467 kts | 207° |
| 2026-04-27 07:57 | 8.50854 | -27.57043 | 36004 ft | 467 kts | 207° |
| 2026-04-27 07:58 | 8.45108 | -27.60164 | 36002 ft | 467 kts | 207° |
| 2026-04-27 07:58 | 8.39401 | -27.63263 | 36000 ft | 467 kts | 207° |
| 2026-04-27 07:59 | 8.33668 | -27.66374 | 36000 ft | 467 kts | 207° |
| 2026-04-27 07:59 | 8.25042 | -27.71054 | 35998 ft | 467 kts | 207° |
| 2026-04-27 08:00 | 8.19318 | -27.74159 | 35996 ft | 467 kts | 207° |
| 2026-04-27 08:00 | 8.13594 | -27.77264 | 35995 ft | 467 kts | 207° |
| 2026-04-27 08:01 | 8.07848 | -27.80376 | 35992 ft | 468 kts | 207° |
| 2026-04-27 08:01 | 8.02104 | -27.83488 | 35992 ft | 468 kts | 207° |
| 2026-04-27 08:02 | 7.96380 | -27.86589 | 35992 ft | 468 kts | 207° |
| 2026-04-27 08:02 | 7.90622 | -27.89707 | 35992 ft | 467 kts | 207° |
| 2026-04-27 08:03 | 7.84913 | -27.92798 | 35992 ft | 467 kts | 207° |
| 2026-04-27 08:03 | 7.79160 | -27.95911 | 35992 ft | 468 kts | 207° |
| 2026-04-27 08:04 | 7.73434 | -27.99007 | 35992 ft | 468 kts | 207° |
| 2026-04-27 08:04 | 7.67673 | -28.02123 | 35992 ft | 468 kts | 207° |
| 2026-04-27 08:05 | 7.61950 | -28.05219 | 35992 ft | 468 kts | 207° |
| 2026-04-27 08:05 | 7.56211 | -28.08319 | 35992 ft | 468 kts | 207° |
| 2026-04-27 08:06 | 7.50451 | -28.11432 | 35992 ft | 468 kts | 206° |
| 2026-04-27 08:06 | 7.44712 | -28.14532 | 35992 ft | 468 kts | 206° |
| 2026-04-27 08:07 | 7.38933 | -28.17654 | 35992 ft | 469 kts | 207° |
| 2026-04-27 08:07 | 7.33187 | -28.20754 | 35992 ft | 469 kts | 206° |
| 2026-04-27 08:08 | 7.27442 | -28.23853 | 35992 ft | 469 kts | 206° |
| 2026-04-27 08:08 | 7.21669 | -28.26966 | 35993 ft | 469 kts | 206° |
| 2026-04-27 08:09 | 7.15911 | -28.30070 | 35992 ft | 469 kts | 206° |
| 2026-04-27 08:09 | 7.10156 | -28.33172 | 35993 ft | 470 kts | 206° |
| 2026-04-27 08:10 | 7.04395 | -28.36278 | 35993 ft | 470 kts | 206° |
| 2026-04-27 08:10 | 6.98627 | -28.39386 | 35991 ft | 470 kts | 206° |
| 2026-04-27 08:11 | 6.92827 | -28.42508 | 35994 ft | 469 kts | 206° |
| 2026-04-27 08:11 | 6.87087 | -28.45598 | 35993 ft | 470 kts | 206° |
| 2026-04-27 08:12 | 6.81304 | -28.48713 | 35991 ft | 470 kts | 206° |
| 2026-04-27 08:12 | 6.75554 | -28.51808 | 35991 ft | 470 kts | 206° |
| 2026-04-27 08:13 | 6.69780 | -28.54913 | 35988 ft | 470 kts | 206° |
| 2026-04-27 08:13 | 6.63999 | -28.58023 | 35988 ft | 469 kts | 206° |
| 2026-04-27 08:14 | 6.58230 | -28.61126 | 35989 ft | 470 kts | 206° |
| 2026-04-27 08:14 | 6.52468 | -28.64222 | 35987 ft | 470 kts | 206° |
| 2026-04-27 08:15 | 6.46678 | -28.67334 | 35985 ft | 470 kts | 206° |
| 2026-04-27 08:15 | 6.40889 | -28.70445 | 35986 ft | 469 kts | 206° |
| 2026-04-27 08:16 | 6.35156 | -28.73523 | 35983 ft | 470 kts | 206° |
| 2026-04-27 08:16 | 6.29373 | -28.76630 | 35978 ft | 469 kts | 206° |
| 2026-04-27 08:17 | 6.23588 | -28.79737 | 35977 ft | 470 kts | 206° |
| 2026-04-27 08:17 | 6.17814 | -28.82837 | 35975 ft | 470 kts | 206° |
| 2026-04-27 08:18 | 6.12050 | -28.85928 | 35974 ft | 471 kts | 206° |
| 2026-04-27 08:18 | 6.06264 | -28.89031 | 35972 ft | 471 kts | 206° |
| 2026-04-27 08:19 | 6.00474 | -28.92139 | 35973 ft | 470 kts | 206° |
| 2026-04-27 08:19 | 5.94691 | -28.95239 | 35973 ft | 470 kts | 206° |
| 2026-04-27 08:20 | 5.88937 | -28.98324 | 35974 ft | 470 kts | 206° |
| 2026-04-27 08:20 | 5.83145 | -29.01429 | 35972 ft | 470 kts | 206° |
| 2026-04-27 08:21 | 5.77378 | -29.04518 | 35975 ft | 470 kts | 206° |
| 2026-04-27 08:21 | 5.71600 | -29.07614 | 35973 ft | 469 kts | 206° |
| 2026-04-27 08:22 | 5.65864 | -29.10686 | 35972 ft | 469 kts | 206° |
| 2026-04-27 08:22 | 5.60060 | -29.13794 | 35973 ft | 469 kts | 206° |
| 2026-04-27 08:23 | 5.54311 | -29.16873 | 35973 ft | 469 kts | 206° |
| 2026-04-27 08:23 | 5.48527 | -29.19968 | 35973 ft | 469 kts | 206° |
| 2026-04-27 08:24 | 5.42772 | -29.23047 | 35974 ft | 469 kts | 206° |
| 2026-04-27 08:24 | 5.37014 | -29.26127 | 35974 ft | 469 kts | 206° |
| 2026-04-27 08:25 | 5.31283 | -29.29193 | 35977 ft | 469 kts | 206° |
| 2026-04-27 08:25 | 5.25480 | -29.32297 | 35978 ft | 469 kts | 206° |
| 2026-04-27 08:26 | 5.19716 | -29.35378 | 35978 ft | 469 kts | 206° |
| 2026-04-27 08:26 | 5.13961 | -29.38455 | 35976 ft | 469 kts | 206° |
| 2026-04-27 08:27 | 5.08210 | -29.41529 | 35977 ft | 468 kts | 206° |
| 2026-04-27 08:27 | 5.02471 | -29.44596 | 35974 ft | 468 kts | 206° |
| 2026-04-27 08:28 | 4.96721 | -29.47667 | 35983 ft | 468 kts | 206° |
| 2026-04-27 08:28 | 4.90933 | -29.50759 | 35988 ft | 468 kts | 206° |
| 2026-04-27 08:29 | 4.85180 | -29.53830 | 35988 ft | 468 kts | 206° |
| 2026-04-27 08:29 | 4.79431 | -29.56900 | 35986 ft | 468 kts | 206° |
| 2026-04-27 08:30 | 4.73674 | -29.59974 | 35982 ft | 468 kts | 206° |
| 2026-04-27 08:30 | 4.67959 | -29.63024 | 35980 ft | 468 kts | 206° |
| 2026-04-27 08:31 | 4.62185 | -29.66106 | 35980 ft | 467 kts | 206° |
| 2026-04-27 08:31 | 4.56463 | -29.69158 | 35981 ft | 466 kts | 205° |
| 2026-04-27 08:32 | 4.50736 | -29.72213 | 35979 ft | 466 kts | 205° |
| 2026-04-27 08:32 | 4.44986 | -29.75278 | 35980 ft | 467 kts | 205° |
| 2026-04-27 08:33 | 4.39241 | -29.78343 | 35977 ft | 466 kts | 205° |
| 2026-04-27 08:33 | 4.33521 | -29.81392 | 35976 ft | 466 kts | 205° |
| 2026-04-27 08:34 | 4.27807 | -29.84437 | 35974 ft | 466 kts | 205° |
| 2026-04-27 08:34 | 4.22061 | -29.87500 | 35974 ft | 467 kts | 205° |
| 2026-04-27 08:35 | 4.16323 | -29.90558 | 35974 ft | 466 kts | 205° |
| 2026-04-27 08:35 | 4.10586 | -29.93615 | 35970 ft | 465 kts | 205° |
| 2026-04-27 08:36 | 4.04852 | -29.96669 | 35971 ft | 465 kts | 205° |
| 2026-04-27 08:36 | 3.99159 | -29.99701 | 35972 ft | 466 kts | 205° |
| 2026-04-27 08:37 | 3.93391 | -30.02767 | 35975 ft | 466 kts | 205° |
| 2026-04-27 08:37 | 3.87672 | -30.05805 | 35971 ft | 467 kts | 205° |
| 2026-04-27 08:38 | 3.81926 | -30.08859 | 35973 ft | 466 kts | 205° |
| 2026-04-27 08:38 | 3.76192 | -30.11906 | 35974 ft | 466 kts | 205° |
| 2026-04-27 08:39 | 3.70480 | -30.14943 | 35973 ft | 465 kts | 205° |
| 2026-04-27 08:39 | 3.64726 | -30.18000 | 35974 ft | 465 kts | 205° |
| 2026-04-27 08:40 | 3.59029 | -30.21027 | 35976 ft | 465 kts | 205° |
| 2026-04-27 08:40 | 3.53302 | -30.24068 | 35972 ft | 465 kts | 205° |
| 2026-04-27 08:41 | 3.47551 | -30.27121 | 35972 ft | 465 kts | 205° |
| 2026-04-27 08:41 | 3.41822 | -30.30165 | 35976 ft | 465 kts | 205° |
| 2026-04-27 08:42 | 3.36114 | -30.33195 | 35975 ft | 465 kts | 205° |
| 2026-04-27 08:42 | 3.30403 | -30.36228 | 35977 ft | 465 kts | 205° |
| 2026-04-27 08:43 | 3.24646 | -30.39283 | 35972 ft | 465 kts | 205° |
| 2026-04-27 08:43 | 3.18944 | -30.42310 | 35972 ft | 465 kts | 205° |
| 2026-04-27 08:44 | 3.13224 | -30.45344 | 35976 ft | 464 kts | 205° |
| 2026-04-27 08:44 | 3.07524 | -30.48370 | 35972 ft | 464 kts | 205° |
| 2026-04-27 08:45 | 3.01810 | -30.51401 | 35969 ft | 464 kts | 205° |
| 2026-04-27 08:45 | 2.96072 | -30.54446 | 35960 ft | 465 kts | 205° |
| 2026-04-27 08:46 | 2.90342 | -30.57485 | 35955 ft | 465 kts | 205° |
| 2026-04-27 08:46 | 2.84632 | -30.60514 | 35951 ft | 465 kts | 205° |
| 2026-04-27 08:47 | 2.78893 | -30.63556 | 35951 ft | 465 kts | 205° |
| 2026-04-27 08:47 | 2.73178 | -30.66586 | 35949 ft | 465 kts | 205° |
| 2026-04-27 08:48 | 2.67454 | -30.69623 | 35948 ft | 465 kts | 205° |
| 2026-04-27 08:48 | 2.61741 | -30.72650 | 35950 ft | 466 kts | 205° |
| 2026-04-27 08:49 | 2.56017 | -30.75685 | 35950 ft | 464 kts | 205° |
| 2026-04-27 08:49 | 2.50300 | -30.78715 | 35951 ft | 465 kts | 205° |
| 2026-04-27 08:50 | 2.44559 | -30.81756 | 35949 ft | 465 kts | 205° |
| 2026-04-27 08:50 | 2.38846 | -30.84784 | 35951 ft | 465 kts | 205° |
| 2026-04-27 08:51 | 2.33109 | -30.87825 | 35949 ft | 466 kts | 205° |
| 2026-04-27 08:51 | 2.27366 | -30.90868 | 35949 ft | 466 kts | 205° |
| 2026-04-27 08:52 | 2.21646 | -30.93899 | 35949 ft | 467 kts | 205° |
| 2026-04-27 08:52 | 2.15904 | -30.96937 | 35953 ft | 467 kts | 205° |
| 2026-04-27 08:53 | 2.10156 | -30.99981 | 35958 ft | 466 kts | 205° |
| 2026-04-27 08:53 | 2.04392 | -31.03031 | 35969 ft | 465 kts | 205° |
| 2026-04-27 08:54 | 1.98660 | -31.06064 | 35970 ft | 466 kts | 205° |
| 2026-04-27 08:54 | 1.92911 | -31.09107 | 35972 ft | 468 kts | 205° |
| 2026-04-27 08:55 | 1.87149 | -31.12158 | 35972 ft | 469 kts | 205° |
| 2026-04-27 08:55 | 1.81407 | -31.15198 | 35972 ft | 470 kts | 205° |
| 2026-04-27 08:56 | 1.75604 | -31.18267 | 35971 ft | 470 kts | 205° |
| 2026-04-27 08:56 | 1.69825 | -31.21324 | 35971 ft | 471 kts | 205° |
| 2026-04-27 08:57 | 1.61105 | -31.25942 | 35972 ft | 471 kts | 205° |
| 2026-04-27 08:58 | 1.55322 | -31.29001 | 35972 ft | 472 kts | 205° |
| 2026-04-27 08:58 | 1.49489 | -31.32086 | 35971 ft | 473 kts | 205° |
| 2026-04-27 08:59 | 1.43679 | -31.35158 | 35971 ft | 474 kts | 205° |
| 2026-04-27 08:59 | 1.37840 | -31.38248 | 35971 ft | 474 kts | 205° |
| 2026-04-27 09:00 | 1.31986 | -31.41344 | 35971 ft | 475 kts | 205° |
| 2026-04-27 09:00 | 1.26141 | -31.44437 | 35971 ft | 475 kts | 205° |
| 2026-04-27 09:01 | 1.20286 | -31.47536 | 35971 ft | 475 kts | 205° |
| 2026-04-27 09:01 | 1.14468 | -31.50612 | 35972 ft | 475 kts | 205° |
| 2026-04-27 09:02 | 1.08587 | -31.53721 | 35972 ft | 475 kts | 205° |
| 2026-04-27 09:02 | 1.02738 | -31.56813 | 35971 ft | 476 kts | 206° |
| 2026-04-27 09:03 | 0.96887 | -31.59907 | 35973 ft | 476 kts | 206° |
| 2026-04-27 09:03 | 0.91018 | -31.63011 | 35975 ft | 476 kts | 205° |
| 2026-04-27 09:04 | 0.85154 | -31.66112 | 35972 ft | 475 kts | 206° |
| 2026-04-27 09:04 | 0.79327 | -31.69194 | 35973 ft | 475 kts | 205° |
| 2026-04-27 09:05 | 0.73458 | -31.72298 | 35973 ft | 476 kts | 206° |
| 2026-04-27 09:05 | 0.67610 | -31.75389 | 35973 ft | 475 kts | 206° |
| 2026-04-27 09:06 | 0.61744 | -31.78490 | 35975 ft | 475 kts | 206° |
| 2026-04-27 09:06 | 0.55890 | -31.81586 | 35974 ft | 475 kts | 206° |
| 2026-04-27 09:07 | 0.50040 | -31.84680 | 35968 ft | 476 kts | 206° |
| 2026-04-27 09:07 | 0.44197 | -31.87769 | 35972 ft | 475 kts | 206° |
| 2026-04-27 09:08 | 0.38353 | -31.90858 | 35975 ft | 476 kts | 206° |
| 2026-04-27 09:08 | 0.32463 | -31.93972 | 35975 ft | 477 kts | 206° |
| 2026-04-27 09:09 | 0.26594 | -31.97077 | 35970 ft | 476 kts | 206° |
| 2026-04-27 09:09 | 0.20745 | -32.00171 | 35974 ft | 476 kts | 206° |
| 2026-04-27 09:10 | 0.14875 | -32.03278 | 35972 ft | 475 kts | 206° |
| 2026-04-27 09:10 | 0.09051 | -32.06359 | 35973 ft | 475 kts | 206° |
| 2026-04-27 09:11 | 0.03208 | -32.09448 | 35973 ft | 474 kts | 206° |
| 2026-04-27 09:11 | -0.02653 | -32.12548 | 35971 ft | 475 kts | 206° |
| 2026-04-27 09:12 | -0.08514 | -32.15648 | 35969 ft | 476 kts | 206° |
| 2026-04-27 09:12 | -0.14366 | -32.18743 | 35971 ft | 476 kts | 206° |
| 2026-04-27 09:13 | -0.20198 | -32.21829 | 35969 ft | 476 kts | 206° |
| 2026-04-27 09:13 | -0.26048 | -32.24924 | 35969 ft | 476 kts | 206° |
| 2026-04-27 09:14 | -0.31934 | -32.28037 | 35969 ft | 477 kts | 206° |
| 2026-04-27 09:14 | -0.37822 | -32.31150 | 35971 ft | 477 kts | 206° |
| 2026-04-27 09:15 | -0.43690 | -32.34255 | 35967 ft | 477 kts | 206° |
| 2026-04-27 09:15 | -0.49543 | -32.37349 | 35970 ft | 478 kts | 206° |
| 2026-04-27 09:16 | -0.55437 | -32.40469 | 35970 ft | 479 kts | 206° |
| 2026-04-27 09:16 | -0.61350 | -32.43595 | 35970 ft | 479 kts | 206° |
| 2026-04-27 09:17 | -0.67259 | -32.46722 | 35971 ft | 480 kts | 207° |
| 2026-04-27 09:17 | -0.73154 | -32.49841 | 35973 ft | 481 kts | 206° |
| 2026-04-27 09:18 | -0.79094 | -32.52982 | 35967 ft | 481 kts | 207° |
| 2026-04-27 09:18 | -0.85038 | -32.56129 | 35970 ft | 482 kts | 207° |
| 2026-04-27 09:19 | -0.90969 | -32.59265 | 35971 ft | 482 kts | 207° |
| 2026-04-27 09:19 | -0.96894 | -32.62399 | 35971 ft | 483 kts | 207° |
| 2026-04-27 09:20 | -1.02836 | -32.65543 | 35966 ft | 483 kts | 207° |
| 2026-04-27 09:20 | -1.08799 | -32.68701 | 35954 ft | 483 kts | 207° |
| 2026-04-27 09:21 | -1.14730 | -32.71840 | 35953 ft | 483 kts | 207° |
| 2026-04-27 09:21 | -1.20679 | -32.74989 | 35949 ft | 483 kts | 207° |
| 2026-04-27 09:22 | -1.26618 | -32.78130 | 35948 ft | 483 kts | 207° |
| 2026-04-27 09:22 | -1.32584 | -32.81287 | 35948 ft | 483 kts | 207° |
| 2026-04-27 09:23 | -1.38515 | -32.84425 | 35950 ft | 483 kts | 207° |
| 2026-04-27 09:23 | -1.44465 | -32.87577 | 35953 ft | 483 kts | 207° |
| 2026-04-27 09:24 | -1.50438 | -32.90741 | 35949 ft | 483 kts | 207° |
| 2026-04-27 09:24 | -1.56378 | -32.93890 | 35949 ft | 483 kts | 207° |
| 2026-04-27 09:25 | -1.62289 | -32.97022 | 35952 ft | 483 kts | 207° |
| 2026-04-27 09:25 | -1.68228 | -33.00170 | 35951 ft | 483 kts | 207° |
| 2026-04-27 09:26 | -1.74201 | -33.03336 | 35952 ft | 482 kts | 207° |
| 2026-04-27 09:26 | -1.80130 | -33.06480 | 35949 ft | 482 kts | 207° |
| 2026-04-27 09:27 | -1.86038 | -33.09613 | 35949 ft | 482 kts | 207° |
| 2026-04-27 09:27 | -1.91986 | -33.12765 | 35949 ft | 482 kts | 207° |
| 2026-04-27 09:28 | -1.97893 | -33.15899 | 35950 ft | 482 kts | 207° |
| 2026-04-27 09:28 | -2.03839 | -33.19052 | 35948 ft | 482 kts | 207° |
| 2026-04-27 09:29 | -2.09763 | -33.22195 | 35950 ft | 482 kts | 206° |
| 2026-04-27 09:29 | -2.15683 | -33.25335 | 35947 ft | 481 kts | 207° |
| 2026-04-27 09:30 | -2.21612 | -33.28479 | 35947 ft | 481 kts | 206° |
| 2026-04-27 09:30 | -2.27569 | -33.31640 | 35949 ft | 482 kts | 207° |
| 2026-04-27 09:31 | -2.33462 | -33.34768 | 35952 ft | 482 kts | 206° |
| 2026-04-27 09:31 | -2.39422 | -33.37930 | 35948 ft | 483 kts | 206° |
| 2026-04-27 09:32 | -2.45366 | -33.41085 | 35950 ft | 483 kts | 206° |
| 2026-04-27 09:32 | -2.51289 | -33.44227 | 35949 ft | 483 kts | 206° |
| 2026-04-27 09:33 | -2.57224 | -33.47375 | 35950 ft | 483 kts | 206° |
| 2026-04-27 09:33 | -2.63204 | -33.50550 | 35949 ft | 483 kts | 206° |
| 2026-04-27 09:34 | -2.69153 | -33.53699 | 35951 ft | 484 kts | 206° |
| 2026-04-27 09:34 | -2.75110 | -33.56848 | 35947 ft | 484 kts | 206° |
| 2026-04-27 09:35 | -2.81034 | -33.59981 | 35950 ft | 484 kts | 206° |
| 2026-04-27 09:35 | -2.87001 | -33.63139 | 35948 ft | 484 kts | 206° |
| 2026-04-27 09:36 | -2.92973 | -33.66298 | 35946 ft | 483 kts | 206° |
| 2026-04-27 09:36 | -2.98926 | -33.69448 | 35951 ft | 484 kts | 206° |
| 2026-04-27 09:37 | -3.04859 | -33.72589 | 35951 ft | 484 kts | 206° |
| 2026-04-27 09:37 | -3.10840 | -33.75756 | 35952 ft | 485 kts | 206° |
| 2026-04-27 09:38 | -3.16797 | -33.78909 | 35949 ft | 484 kts | 206° |
| 2026-04-27 09:38 | -3.22789 | -33.82083 | 35953 ft | 484 kts | 206° |
| 2026-04-27 09:39 | -3.28744 | -33.85236 | 35952 ft | 484 kts | 206° |
| 2026-04-27 09:39 | -3.34710 | -33.88396 | 35952 ft | 484 kts | 206° |
| 2026-04-27 09:40 | -3.40661 | -33.91548 | 35952 ft | 484 kts | 206° |
| 2026-04-27 09:40 | -3.46593 | -33.94692 | 35951 ft | 484 kts | 206° |
| 2026-04-27 09:41 | -3.52568 | -33.97858 | 35951 ft | 484 kts | 206° |
| 2026-04-27 09:41 | -3.58533 | -34.01021 | 35953 ft | 483 kts | 206° |
| 2026-04-27 09:42 | -3.64456 | -34.04159 | 35953 ft | 484 kts | 206° |
| 2026-04-27 09:42 | -3.70410 | -34.07321 | 35952 ft | 484 kts | 206° |
| 2026-04-27 09:43 | -3.76390 | -34.10500 | 35952 ft | 484 kts | 206° |
| 2026-04-27 09:43 | -3.82339 | -34.13661 | 35953 ft | 484 kts | 206° |
| 2026-04-27 09:44 | -3.88306 | -34.16833 | 35951 ft | 484 kts | 206° |
| 2026-04-27 09:44 | -3.94259 | -34.19998 | 35952 ft | 485 kts | 206° |
| 2026-04-27 09:45 | -4.00217 | -34.23167 | 35952 ft | 485 kts | 206° |
| 2026-04-27 09:45 | -4.06167 | -34.26333 | 35951 ft | 485 kts | 206° |
| 2026-04-27 09:46 | -4.12144 | -34.29512 | 35955 ft | 484 kts | 206° |
| 2026-04-27 09:46 | -4.18109 | -34.32686 | 35960 ft | 485 kts | 206° |
| 2026-04-27 09:47 | -4.24082 | -34.35863 | 35959 ft | 485 kts | 206° |
| 2026-04-27 09:47 | -4.30053 | -34.39040 | 35961 ft | 486 kts | 206° |
| 2026-04-27 09:48 | -4.36027 | -34.42222 | 35958 ft | 486 kts | 206° |
| 2026-04-27 09:48 | -4.41997 | -34.45400 | 35956 ft | 486 kts | 206° |
| 2026-04-27 09:49 | -4.47990 | -34.48593 | 35953 ft | 486 kts | 206° |
| 2026-04-27 09:49 | -4.53973 | -34.51779 | 35950 ft | 486 kts | 206° |
| 2026-04-27 09:50 | -4.59952 | -34.54963 | 35951 ft | 487 kts | 206° |
| 2026-04-27 09:50 | -4.65935 | -34.58151 | 35954 ft | 487 kts | 206° |
| 2026-04-27 09:51 | -4.71922 | -34.61345 | 35955 ft | 487 kts | 206° |
| 2026-04-27 09:51 | -4.77918 | -34.64542 | 35949 ft | 488 kts | 206° |
| 2026-04-27 09:52 | -4.83917 | -34.67740 | 35945 ft | 487 kts | 206° |
| 2026-04-27 09:52 | -4.89898 | -34.70931 | 35948 ft | 487 kts | 206° |
| 2026-04-27 09:53 | -4.95893 | -34.74127 | 35949 ft | 487 kts | 206° |
| 2026-04-27 09:53 | -5.01893 | -34.77328 | 35950 ft | 487 kts | 206° |
| 2026-04-27 09:54 | -5.07872 | -34.80518 | 35951 ft | 487 kts | 206° |
| 2026-04-27 09:54 | -5.13881 | -34.83726 | 35950 ft | 488 kts | 206° |
| 2026-04-27 09:55 | -5.19878 | -34.86927 | 35950 ft | 488 kts | 206° |
| 2026-04-27 09:55 | -5.28863 | -34.91725 | 35949 ft | 487 kts | 206° |
| 2026-04-27 09:56 | -5.34833 | -34.94913 | 35952 ft | 487 kts | 206° |
| 2026-04-27 09:56 | -5.40816 | -34.98107 | 35949 ft | 487 kts | 206° |
| 2026-04-27 09:57 | -5.46820 | -35.01315 | 35951 ft | 487 kts | 206° |
| 2026-04-27 09:57 | -5.52772 | -35.04496 | 35953 ft | 487 kts | 206° |
| 2026-04-27 09:58 | -5.58765 | -35.07700 | 35953 ft | 487 kts | 206° |
| 2026-04-27 09:58 | -5.64776 | -35.10915 | 35957 ft | 486 kts | 206° |
| 2026-04-27 09:59 | -5.70726 | -35.14098 | 35957 ft | 486 kts | 206° |
| 2026-04-27 09:59 | -5.76725 | -35.17308 | 35961 ft | 486 kts | 206° |
| 2026-04-27 10:00 | -5.82706 | -35.20483 | 35959 ft | 486 kts | 205° |
| 2026-04-27 10:00 | -5.88902 | -35.23186 | 35961 ft | 485 kts | 198° |
| 2026-04-27 10:01 | -5.95121 | -35.25121 | 35962 ft | 483 kts | 192° |
| 2026-04-27 10:01 | -6.01714 | -35.26406 | 35964 ft | 482 kts | 186° |
| 2026-04-27 10:02 | -6.08439 | -35.27330 | 36231 ft | 486 kts | 186° |
| 2026-04-27 10:02 | -6.11805 | -35.27787 | 36609 ft | 484 kts | 186° |
| 2026-04-27 10:02 | -6.15147 | -35.28244 | 36975 ft | 482 kts | 185° |
| 2026-04-27 10:03 | -6.18446 | -35.28696 | 37283 ft | 481 kts | 185° |
| 2026-04-27 10:03 | -6.21773 | -35.29154 | 37570 ft | 481 kts | 185° |
| 2026-04-27 10:03 | -6.25124 | -35.29616 | 37839 ft | 481 kts | 185° |
| 2026-04-27 10:03 | -6.28459 | -35.30076 | 37965 ft | 482 kts | 185° |
| 2026-04-27 10:04 | -6.35093 | -35.30992 | 37975 ft | 482 kts | 185° |
| 2026-04-27 10:04 | -6.41808 | -35.31920 | 37984 ft | 482 kts | 185° |
| 2026-04-27 10:05 | -6.48479 | -35.32844 | 37989 ft | 482 kts | 185° |
| 2026-04-27 10:05 | -6.55148 | -35.33767 | 37990 ft | 482 kts | 185° |
| 2026-04-27 10:06 | -6.61808 | -35.34689 | 37993 ft | 482 kts | 185° |
| 2026-04-27 10:06 | -6.68462 | -35.35611 | 37994 ft | 482 kts | 185° |
| 2026-04-27 10:07 | -6.75122 | -35.36534 | 37995 ft | 482 kts | 185° |
| 2026-04-27 10:07 | -6.81796 | -35.37457 | 37996 ft | 482 kts | 185° |
| 2026-04-27 10:08 | -6.88457 | -35.38378 | 37997 ft | 482 kts | 185° |
| 2026-04-27 10:08 | -6.95121 | -35.39302 | 37998 ft | 482 kts | 185° |
| 2026-04-27 10:09 | -7.01795 | -35.40135 | 38001 ft | 481 kts | 184° |
| 2026-04-27 10:09 | -7.08466 | -35.40922 | 38007 ft | 481 kts | 184° |
| 2026-04-27 10:10 | -7.15136 | -35.41712 | 38004 ft | 482 kts | 184° |
| 2026-04-27 10:10 | -7.21829 | -35.42511 | 38009 ft | 482 kts | 184° |
| 2026-04-27 10:11 | -7.28515 | -35.43312 | 38010 ft | 482 kts | 184° |
| 2026-04-27 10:11 | -7.35207 | -35.44115 | 38011 ft | 482 kts | 184° |
| 2026-04-27 10:12 | -7.41893 | -35.44917 | 38019 ft | 481 kts | 184° |
| 2026-04-27 10:12 | -7.48555 | -35.45714 | 38023 ft | 481 kts | 184° |
| 2026-04-27 10:13 | -7.55250 | -35.46516 | 38026 ft | 481 kts | 185° |
| 2026-04-27 10:13 | -7.61861 | -35.47678 | 38033 ft | 484 kts | 191° |
| 2026-04-27 10:14 | -7.68358 | -35.49573 | 38033 ft | 486 kts | 198° |
| 2026-04-27 10:14 | -7.74667 | -35.52124 | 38032 ft | 487 kts | 201° |
| 2026-04-27 10:15 | -7.80879 | -35.54804 | 38032 ft | 487 kts | 201° |
| 2026-04-27 10:15 | -7.87145 | -35.57500 | 38035 ft | 487 kts | 201° |
| 2026-04-27 10:16 | -7.93381 | -35.60177 | 38038 ft | 486 kts | 201° |
| 2026-04-27 10:16 | -7.99619 | -35.62852 | 38040 ft | 486 kts | 201° |
| 2026-04-27 10:17 | -8.05845 | -35.65522 | 38046 ft | 487 kts | 201° |
| 2026-04-27 10:17 | -8.12125 | -35.68217 | 38057 ft | 487 kts | 201° |
| 2026-04-27 10:18 | -8.18405 | -35.70913 | 38064 ft | 487 kts | 201° |
| 2026-04-27 10:18 | -8.24644 | -35.73589 | 38075 ft | 487 kts | 201° |
| 2026-04-27 10:19 | -8.30918 | -35.76285 | 38075 ft | 487 kts | 201° |
| 2026-04-27 10:19 | -8.37134 | -35.78955 | 38076 ft | 487 kts | 201° |
| 2026-04-27 10:20 | -8.43393 | -35.81644 | 38070 ft | 487 kts | 202° |
| 2026-04-27 10:20 | -8.49667 | -35.84342 | 38065 ft | 487 kts | 202° |
| 2026-04-27 10:21 | -8.55894 | -35.87020 | 38068 ft | 487 kts | 202° |
| 2026-04-27 10:21 | -8.62145 | -35.89710 | 38073 ft | 489 kts | 202° |
| 2026-04-27 10:22 | -8.68415 | -35.92405 | 38081 ft | 488 kts | 202° |
| 2026-04-27 10:22 | -8.74676 | -35.95101 | 38091 ft | 489 kts | 202° |
| 2026-04-27 10:23 | -8.80942 | -35.97822 | 38096 ft | 488 kts | 204° |
| 2026-04-27 10:23 | -8.86983 | -36.01001 | 38095 ft | 489 kts | 210° |
| 2026-04-27 10:24 | -8.92643 | -36.04776 | 38092 ft | 489 kts | 214° |
| 2026-04-27 10:24 | -8.98258 | -36.08755 | 38088 ft | 490 kts | 215° |
| 2026-04-27 10:25 | -9.03852 | -36.12702 | 38082 ft | 490 kts | 214° |
| 2026-04-27 10:25 | -9.09419 | -36.16630 | 38080 ft | 489 kts | 215° |
| 2026-04-27 10:26 | -9.15003 | -36.20578 | 38075 ft | 489 kts | 215° |
| 2026-04-27 10:26 | -9.20598 | -36.24535 | 38076 ft | 488 kts | 215° |
| 2026-04-27 10:27 | -9.26159 | -36.28469 | 38073 ft | 488 kts | 215° |
| 2026-04-27 10:27 | -9.31737 | -36.32416 | 38072 ft | 488 kts | 215° |
| 2026-04-27 10:28 | -9.37289 | -36.36346 | 38069 ft | 488 kts | 215° |
| 2026-04-27 10:28 | -9.42885 | -36.40309 | 38067 ft | 488 kts | 215° |
| 2026-04-27 10:29 | -9.48447 | -36.44250 | 38065 ft | 487 kts | 215° |
| 2026-04-27 10:29 | -9.53978 | -36.48171 | 38065 ft | 487 kts | 215° |
| 2026-04-27 10:30 | -9.59554 | -36.52125 | 38064 ft | 487 kts | 215° |
| 2026-04-27 10:30 | -9.65082 | -36.56047 | 38060 ft | 487 kts | 215° |
| 2026-04-27 10:31 | -9.70635 | -36.59992 | 38055 ft | 486 kts | 215° |
| 2026-04-27 10:31 | -9.76186 | -36.63950 | 38049 ft | 486 kts | 215° |
| 2026-04-27 10:32 | -9.81733 | -36.67908 | 38047 ft | 485 kts | 215° |
| 2026-04-27 10:32 | -9.87239 | -36.71838 | 38043 ft | 484 kts | 215° |
| 2026-04-27 10:33 | -9.92750 | -36.75772 | 38039 ft | 484 kts | 215° |
| 2026-04-27 10:33 | -9.98251 | -36.79704 | 38033 ft | 484 kts | 215° |
| 2026-04-27 10:34 | -10.03776 | -36.83656 | 38021 ft | 484 kts | 215° |
| 2026-04-27 10:34 | -10.09269 | -36.87588 | 38023 ft | 484 kts | 215° |
| 2026-04-27 10:35 | -10.14767 | -36.91525 | 38023 ft | 482 kts | 215° |
| 2026-04-27 10:35 | -10.20268 | -36.95464 | 38024 ft | 482 kts | 215° |
| 2026-04-27 10:36 | -10.25718 | -36.99366 | 38024 ft | 482 kts | 215° |
| 2026-04-27 10:36 | -10.31219 | -37.03310 | 38030 ft | 482 kts | 215° |
| 2026-04-27 10:37 | -10.36710 | -37.07251 | 38028 ft | 481 kts | 215° |
| 2026-04-27 10:37 | -10.42158 | -37.11159 | 38023 ft | 480 kts | 214° |
| 2026-04-27 10:38 | -10.47609 | -37.15071 | 38030 ft | 480 kts | 214° |
| 2026-04-27 10:38 | -10.53048 | -37.18975 | 38032 ft | 478 kts | 214° |
| 2026-04-27 10:39 | -10.58515 | -37.22901 | 38032 ft | 478 kts | 214° |
| 2026-04-27 10:39 | -10.63941 | -37.26802 | 38032 ft | 479 kts | 214° |
| 2026-04-27 10:40 | -10.69373 | -37.30708 | 38032 ft | 477 kts | 214° |
| 2026-04-27 10:40 | -10.74803 | -37.34614 | 38031 ft | 476 kts | 214° |
| 2026-04-27 10:41 | -10.80210 | -37.38505 | 38035 ft | 476 kts | 214° |
| 2026-04-27 10:41 | -10.85604 | -37.42389 | 38034 ft | 476 kts | 214° |
| 2026-04-27 10:42 | -10.91030 | -37.46296 | 38036 ft | 476 kts | 214° |
| 2026-04-27 10:42 | -10.96447 | -37.50200 | 38041 ft | 476 kts | 214° |
| 2026-04-27 10:43 | -11.01867 | -37.54107 | 38040 ft | 475 kts | 214° |
| 2026-04-27 10:43 | -11.07266 | -37.58002 | 38041 ft | 475 kts | 214° |
| 2026-04-27 10:44 | -11.12681 | -37.61911 | 38040 ft | 476 kts | 214° |
| 2026-04-27 10:44 | -11.18078 | -37.65808 | 38038 ft | 476 kts | 214° |
| 2026-04-27 10:45 | -11.23481 | -37.69708 | 38039 ft | 476 kts | 215° |
| 2026-04-27 10:45 | -11.27979 | -37.72958 | 38040 ft | 476 kts | 215° |
| 2026-04-27 10:46 | -11.34302 | -37.77532 | 38040 ft | 477 kts | 215° |
| 2026-04-27 10:46 | -11.39689 | -37.81430 | 38044 ft | 476 kts | 214° |
| 2026-04-27 10:47 | -11.45101 | -37.85346 | 38049 ft | 476 kts | 214° |
| 2026-04-27 10:47 | -11.49634 | -37.88636 | 38048 ft | 477 kts | 214° |
| 2026-04-27 10:48 | -11.55927 | -37.93217 | 38050 ft | 478 kts | 215° |
| 2026-04-27 10:48 | -11.61340 | -37.97160 | 38047 ft | 478 kts | 215° |
| 2026-04-27 10:49 | -11.66755 | -38.01107 | 38049 ft | 478 kts | 215° |
| 2026-04-27 10:49 | -11.72193 | -38.05073 | 38051 ft | 478 kts | 215° |
| 2026-04-27 10:50 | -11.77609 | -38.09025 | 38048 ft | 478 kts | 215° |
| 2026-04-27 10:50 | -11.83019 | -38.12973 | 38045 ft | 478 kts | 215° |
| 2026-04-27 10:51 | -11.88447 | -38.16937 | 38048 ft | 478 kts | 215° |
| 2026-04-27 10:51 | -11.93826 | -38.20867 | 38049 ft | 478 kts | 215° |
| 2026-04-27 10:52 | -11.99247 | -38.24827 | 38044 ft | 479 kts | 215° |
| 2026-04-27 10:52 | -12.04677 | -38.28798 | 38048 ft | 479 kts | 215° |
| 2026-04-27 10:53 | -12.12805 | -38.34749 | 38047 ft | 479 kts | 215° |
| 2026-04-27 10:54 | -12.18223 | -38.38715 | 38051 ft | 479 kts | 215° |
| 2026-04-27 10:54 | -12.23657 | -38.42697 | 38049 ft | 479 kts | 215° |
| 2026-04-27 10:55 | -12.29074 | -38.46666 | 38051 ft | 479 kts | 215° |
| 2026-04-27 10:55 | -12.34462 | -38.50617 | 38051 ft | 478 kts | 215° |
| 2026-04-27 10:56 | -12.39886 | -38.54599 | 38052 ft | 479 kts | 215° |
| 2026-04-27 10:56 | -12.45310 | -38.58581 | 38049 ft | 478 kts | 215° |
| 2026-04-27 10:57 | -12.50729 | -38.62562 | 38048 ft | 478 kts | 216° |
| 2026-04-27 10:57 | -12.56131 | -38.66531 | 38046 ft | 478 kts | 216° |
| 2026-04-27 10:58 | -12.61532 | -38.70503 | 38047 ft | 478 kts | 216° |
| 2026-04-27 10:58 | -12.66943 | -38.74485 | 38049 ft | 478 kts | 216° |
| 2026-04-27 10:59 | -12.72346 | -38.78463 | 38049 ft | 477 kts | 216° |
| 2026-04-27 10:59 | -12.76864 | -38.81793 | 38051 ft | 478 kts | 216° |
| 2026-04-27 11:00 | -12.85858 | -38.88434 | 38056 ft | 477 kts | 216° |
| 2026-04-27 11:00 | -12.91269 | -38.92437 | 38060 ft | 478 kts | 216° |
| 2026-04-27 11:01 | -12.96660 | -38.96431 | 38062 ft | 477 kts | 216° |
| 2026-04-27 11:01 | -13.02024 | -39.00408 | 38069 ft | 476 kts | 216° |
| 2026-04-27 11:02 | -13.07418 | -39.04409 | 38071 ft | 476 kts | 216° |
| 2026-04-27 11:02 | -13.12785 | -39.08392 | 38076 ft | 476 kts | 216° |
| 2026-04-27 11:03 | -13.18149 | -39.12375 | 38069 ft | 477 kts | 216° |
| 2026-04-27 11:03 | -13.23561 | -39.16395 | 38075 ft | 477 kts | 216° |
| 2026-04-27 11:04 | -13.28941 | -39.20394 | 38076 ft | 477 kts | 216° |
| 2026-04-27 11:04 | -13.34309 | -39.24387 | 38078 ft | 477 kts | 216° |
| 2026-04-27 11:05 | -13.39695 | -39.28395 | 38083 ft | 477 kts | 216° |
| 2026-04-27 11:05 | -13.45069 | -39.32397 | 38081 ft | 477 kts | 216° |
| 2026-04-27 11:06 | -13.50429 | -39.36404 | 38089 ft | 476 kts | 216° |
| 2026-04-27 11:06 | -13.55792 | -39.40423 | 38089 ft | 476 kts | 216° |
| 2026-04-27 11:07 | -13.61125 | -39.44420 | 38089 ft | 476 kts | 216° |
| 2026-04-27 11:07 | -13.66485 | -39.48439 | 38093 ft | 476 kts | 216° |
| 2026-04-27 11:08 | -13.71864 | -39.52476 | 38093 ft | 476 kts | 216° |
| 2026-04-27 11:08 | -13.77193 | -39.56477 | 38095 ft | 476 kts | 216° |
| 2026-04-27 11:09 | -13.82561 | -39.60509 | 38098 ft | 477 kts | 216° |
| 2026-04-27 11:09 | -13.87917 | -39.64535 | 38099 ft | 477 kts | 216° |
| 2026-04-27 11:10 | -13.93276 | -39.68565 | 38101 ft | 476 kts | 216° |
| 2026-04-27 11:10 | -13.98638 | -39.72599 | 38102 ft | 475 kts | 216° |
| 2026-04-27 11:11 | -14.03976 | -39.76617 | 38101 ft | 476 kts | 216° |
| 2026-04-27 11:11 | -14.09326 | -39.80648 | 38101 ft | 476 kts | 216° |
| 2026-04-27 11:12 | -14.14704 | -39.84702 | 38104 ft | 477 kts | 216° |
| 2026-04-27 11:12 | -14.20026 | -39.88716 | 38110 ft | 477 kts | 216° |
| 2026-04-27 11:13 | -14.25419 | -39.92786 | 38116 ft | 477 kts | 216° |
| 2026-04-27 11:13 | -14.30754 | -39.96814 | 38121 ft | 476 kts | 216° |
| 2026-04-27 11:14 | -14.36110 | -40.00862 | 38127 ft | 477 kts | 216° |
| 2026-04-27 11:14 | -14.41486 | -40.04925 | 38133 ft | 477 kts | 217° |
| 2026-04-27 11:15 | -14.46850 | -40.08980 | 38136 ft | 477 kts | 217° |
| 2026-04-27 11:15 | -14.52206 | -40.13038 | 38138 ft | 477 kts | 217° |
| 2026-04-27 11:16 | -14.57551 | -40.17088 | 38142 ft | 476 kts | 217° |
| 2026-04-27 11:16 | -14.62879 | -40.21127 | 38142 ft | 476 kts | 217° |
| 2026-04-27 11:17 | -14.67324 | -40.24497 | 38149 ft | 475 kts | 217° |
| 2026-04-27 11:17 | -14.73546 | -40.29220 | 38153 ft | 474 kts | 217° |
| 2026-04-27 11:18 | -14.78871 | -40.33263 | 38157 ft | 474 kts | 217° |
| 2026-04-27 11:18 | -14.84157 | -40.37281 | 38163 ft | 474 kts | 217° |
| 2026-04-27 11:19 | -14.89471 | -40.41323 | 38163 ft | 473 kts | 217° |
| 2026-04-27 11:19 | -14.94780 | -40.45363 | 38162 ft | 473 kts | 217° |
| 2026-04-27 11:20 | -15.00082 | -40.49399 | 38156 ft | 473 kts | 217° |
| 2026-04-27 11:20 | -15.05375 | -40.53431 | 38152 ft | 472 kts | 218° |
| 2026-04-27 11:21 | -15.10672 | -40.57470 | 38152 ft | 472 kts | 218° |
| 2026-04-27 11:21 | -15.15965 | -40.61509 | 38152 ft | 472 kts | 218° |
| 2026-04-27 11:22 | -15.21295 | -40.65576 | 38149 ft | 473 kts | 218° |
| 2026-04-27 11:22 | -15.26581 | -40.69614 | 38149 ft | 473 kts | 218° |
| 2026-04-27 11:23 | -15.31881 | -40.73665 | 38152 ft | 473 kts | 218° |
| 2026-04-27 11:23 | -15.37179 | -40.77717 | 38163 ft | 472 kts | 218° |
| 2026-04-27 11:24 | -15.42464 | -40.81761 | 38166 ft | 473 kts | 218° |
| 2026-04-27 11:24 | -15.47753 | -40.85812 | 38172 ft | 473 kts | 218° |
| 2026-04-27 11:25 | -15.53064 | -40.89882 | 38178 ft | 474 kts | 218° |
| 2026-04-27 11:25 | -15.58365 | -40.93946 | 38181 ft | 475 kts | 218° |
| 2026-04-27 11:26 | -15.63671 | -40.98017 | 38178 ft | 474 kts | 218° |
| 2026-04-27 11:26 | -15.68989 | -41.02100 | 38179 ft | 473 kts | 218° |
| 2026-04-27 11:27 | -15.73386 | -41.05479 | 38182 ft | 473 kts | 218° |
| 2026-04-27 11:27 | -15.79592 | -41.10249 | 38190 ft | 473 kts | 218° |
| 2026-04-27 11:28 | -15.84900 | -41.14333 | 38189 ft | 474 kts | 218° |
| 2026-04-27 11:28 | -15.90203 | -41.18416 | 38187 ft | 475 kts | 218° |
| 2026-04-27 11:29 | -15.94609 | -41.21811 | 38189 ft | 474 kts | 218° |
| 2026-04-27 11:29 | -16.00797 | -41.26579 | 38185 ft | 474 kts | 218° |
| 2026-04-27 11:30 | -16.06105 | -41.30671 | 38185 ft | 474 kts | 218° |
| 2026-04-27 11:30 | -16.11413 | -41.34768 | 38180 ft | 474 kts | 218° |
| 2026-04-27 11:31 | -16.16718 | -41.38864 | 38177 ft | 474 kts | 218° |
| 2026-04-27 11:31 | -16.22014 | -41.42958 | 38174 ft | 474 kts | 218° |
| 2026-04-27 11:32 | -16.26439 | -41.46380 | 38169 ft | 474 kts | 218° |
| 2026-04-27 11:32 | -16.31728 | -41.50472 | 38165 ft | 474 kts | 218° |
| 2026-04-27 11:33 | -16.37921 | -41.55268 | 38154 ft | 474 kts | 218° |
| 2026-04-27 11:33 | -16.43203 | -41.59360 | 38154 ft | 475 kts | 218° |
| 2026-04-27 11:34 | -16.47614 | -41.62780 | 38141 ft | 475 kts | 218° |
| 2026-04-27 11:34 | -16.52959 | -41.66927 | 38134 ft | 475 kts | 218° |
| 2026-04-27 11:35 | -16.59152 | -41.71736 | 38138 ft | 475 kts | 219° |
| 2026-04-27 11:35 | -16.64455 | -41.75856 | 38146 ft | 475 kts | 218° |
| 2026-04-27 11:36 | -16.68875 | -41.79293 | 38143 ft | 475 kts | 218° |
| 2026-04-27 11:36 | -16.74173 | -41.83416 | 38149 ft | 475 kts | 219° |
| 2026-04-27 11:37 | -16.79438 | -41.87513 | 38146 ft | 475 kts | 219° |
| 2026-04-27 11:37 | -16.85636 | -41.92344 | 38147 ft | 475 kts | 219° |
| 2026-04-27 11:38 | -16.90944 | -41.96484 | 38145 ft | 476 kts | 219° |
| 2026-04-27 11:38 | -16.96079 | -42.00495 | 38141 ft | 475 kts | 219° |
| 2026-04-27 11:39 | -17.00517 | -42.03963 | 38144 ft | 475 kts | 219° |
| 2026-04-27 11:39 | -17.06659 | -42.08767 | 38145 ft | 474 kts | 219° |
| 2026-04-27 11:40 | -17.11078 | -42.12222 | 38146 ft | 474 kts | 219° |
| 2026-04-27 11:40 | -17.16385 | -42.16377 | 38148 ft | 475 kts | 219° |
| 2026-04-27 11:41 | -17.21680 | -42.20528 | 38151 ft | 475 kts | 219° |
| 2026-04-27 11:41 | -17.26969 | -42.24675 | 38159 ft | 474 kts | 218° |
| 2026-04-27 11:42 | -17.33107 | -42.29491 | 38161 ft | 472 kts | 219° |
| 2026-04-27 11:42 | -17.37503 | -42.32943 | 38168 ft | 472 kts | 219° |
| 2026-04-27 11:43 | -17.42730 | -42.37053 | 38177 ft | 471 kts | 218° |
| 2026-04-27 11:43 | -17.48855 | -42.41869 | 38182 ft | 472 kts | 218° |
| 2026-04-27 11:44 | -17.54096 | -42.45995 | 38183 ft | 472 kts | 218° |
| 2026-04-27 11:44 | -17.58501 | -42.49464 | 38183 ft | 472 kts | 218° |
| 2026-04-27 11:45 | -17.63757 | -42.53608 | 38190 ft | 472 kts | 218° |
| 2026-04-27 11:45 | -17.68979 | -42.57727 | 38197 ft | 470 kts | 218° |
| 2026-04-27 11:46 | -17.74206 | -42.61851 | 38198 ft | 470 kts | 218° |
| 2026-04-27 11:46 | -17.79463 | -42.66005 | 38206 ft | 470 kts | 218° |
| 2026-04-27 11:47 | -17.84682 | -42.70130 | 38213 ft | 470 kts | 218° |
| 2026-04-27 11:47 | -17.89903 | -42.74260 | 38230 ft | 470 kts | 218° |
| 2026-04-27 11:48 | -17.95148 | -42.78415 | 38243 ft | 470 kts | 218° |
| 2026-04-27 11:48 | -18.00348 | -42.82534 | 38248 ft | 469 kts | 218° |
| 2026-04-27 11:49 | -18.05572 | -42.86675 | 38242 ft | 468 kts | 218° |
| 2026-04-27 11:49 | -18.11648 | -42.91497 | 38225 ft | 468 kts | 218° |
| 2026-04-27 11:50 | -18.15973 | -42.94933 | 38208 ft | 468 kts | 218° |
| 2026-04-27 11:50 | -18.22064 | -42.99773 | 38199 ft | 469 kts | 218° |
| 2026-04-27 11:51 | -18.26388 | -43.03212 | 38199 ft | 469 kts | 218° |
| 2026-04-27 11:52 | -18.34214 | -43.09443 | 38202 ft | 469 kts | 218° |
| 2026-04-27 11:52 | -18.39403 | -43.13580 | 38198 ft | 468 kts | 219° |
| 2026-04-27 11:53 | -18.44551 | -43.17742 | 38198 ft | 467 kts | 219° |
| 2026-04-27 11:53 | -18.50564 | -43.22619 | 38197 ft | 467 kts | 219° |
| 2026-04-27 11:54 | -18.54856 | -43.26100 | 38196 ft | 467 kts | 219° |
| 2026-04-27 11:54 | -18.60003 | -43.30276 | 38189 ft | 468 kts | 219° |
| 2026-04-27 11:55 | -18.65199 | -43.34474 | 38187 ft | 468 kts | 219° |
| 2026-04-27 11:55 | -18.71257 | -43.39276 | 38191 ft | 468 kts | 218° |
| 2026-04-27 11:56 | -18.75582 | -43.42707 | 38190 ft | 468 kts | 218° |
| 2026-04-27 11:56 | -18.80798 | -43.46853 | 38186 ft | 468 kts | 218° |
| 2026-04-27 11:57 | -18.85983 | -43.50980 | 38188 ft | 467 kts | 219° |
| 2026-04-27 11:57 | -18.91213 | -43.55087 | 38190 ft | 467 kts | 218° |
| 2026-04-27 11:58 | -18.96447 | -43.59091 | 38190 ft | 467 kts | 218° |
| 2026-04-27 11:58 | -19.01708 | -43.63118 | 38192 ft | 466 kts | 218° |
| 2026-04-27 11:59 | -19.07018 | -43.67195 | 38197 ft | 466 kts | 218° |
| 2026-04-27 11:59 | -19.13182 | -43.71936 | 38198 ft | 467 kts | 218° |
| 2026-04-27 12:00 | -19.17549 | -43.75297 | 38196 ft | 467 kts | 218° |
| 2026-04-27 12:00 | -19.22799 | -43.79341 | 38189 ft | 467 kts | 218° |
| 2026-04-27 12:01 | -19.28082 | -43.83414 | 38181 ft | 467 kts | 218° |
| 2026-04-27 12:01 | -19.34203 | -43.88137 | 38176 ft | 466 kts | 218° |
| 2026-04-27 12:02 | -19.38558 | -43.91501 | 38170 ft | 466 kts | 218° |
| 2026-04-27 12:02 | -19.43779 | -43.95536 | 38163 ft | 466 kts | 219° |
| 2026-04-27 12:03 | -19.49019 | -43.99588 | 38161 ft | 466 kts | 219° |
| 2026-04-27 12:03 | -19.54266 | -44.03651 | 38166 ft | 466 kts | 219° |
| 2026-04-27 12:04 | -19.59508 | -44.07692 | 38171 ft | 466 kts | 219° |
| 2026-04-27 12:04 | -19.64804 | -44.11750 | 38176 ft | 466 kts | 219° |
| 2026-04-27 12:05 | -19.70037 | -44.15768 | 38179 ft | 466 kts | 219° |
| 2026-04-27 12:05 | -19.75291 | -44.19825 | 38185 ft | 466 kts | 219° |
| 2026-04-27 12:06 | -19.80543 | -44.23889 | 38196 ft | 467 kts | 219° |
| 2026-04-27 12:06 | -19.85806 | -44.27964 | 38201 ft | 467 kts | 219° |
| 2026-04-27 12:07 | -19.91081 | -44.32050 | 38201 ft | 468 kts | 219° |
| 2026-04-27 12:07 | -19.96319 | -44.36111 | 38192 ft | 469 kts | 219° |
| 2026-04-27 12:08 | -20.01621 | -44.40226 | 38191 ft | 470 kts | 219° |
| 2026-04-27 12:08 | -20.07763 | -44.44996 | 38192 ft | 469 kts | 219° |
| 2026-04-27 12:09 | -20.12201 | -44.48445 | 38191 ft | 469 kts | 219° |
| 2026-04-27 12:09 | -20.17476 | -44.52548 | 38193 ft | 468 kts | 219° |
| 2026-04-27 12:10 | -20.22767 | -44.56663 | 38192 ft | 469 kts | 219° |
| 2026-04-27 12:10 | -20.28010 | -44.60744 | 38191 ft | 469 kts | 219° |
| 2026-04-27 12:11 | -20.33316 | -44.64878 | 38192 ft | 469 kts | 219° |
| 2026-04-27 12:11 | -20.38599 | -44.69000 | 38196 ft | 468 kts | 220° |
| 2026-04-27 12:12 | -20.44714 | -44.73772 | 38198 ft | 468 kts | 220° |
| 2026-04-27 12:12 | -20.49116 | -44.77211 | 38199 ft | 467 kts | 220° |
| 2026-04-27 12:13 | -20.54336 | -44.81285 | 38198 ft | 467 kts | 220° |
| 2026-04-27 12:13 | -20.60447 | -44.86060 | 38199 ft | 467 kts | 220° |
| 2026-04-27 12:14 | -20.64833 | -44.89491 | 38200 ft | 467 kts | 220° |
| 2026-04-27 12:14 | -20.70069 | -44.93589 | 38201 ft | 466 kts | 220° |
| 2026-04-27 12:15 | -20.76177 | -44.98375 | 38198 ft | 466 kts | 220° |
| 2026-04-27 12:15 | -20.80543 | -45.01808 | 38196 ft | 466 kts | 220° |
| 2026-04-27 12:16 | -20.85761 | -45.05914 | 38195 ft | 466 kts | 220° |
| 2026-04-27 12:16 | -20.90963 | -45.10012 | 38193 ft | 466 kts | 220° |
| 2026-04-27 12:17 | -20.96188 | -45.14127 | 38192 ft | 466 kts | 220° |
| 2026-04-27 12:17 | -21.01429 | -45.18258 | 38191 ft | 464 kts | 220° |
| 2026-04-27 12:18 | -21.06628 | -45.22359 | 38190 ft | 464 kts | 220° |
| 2026-04-27 12:18 | -21.11837 | -45.26471 | 38189 ft | 464 kts | 220° |
| 2026-04-27 12:19 | -21.17916 | -45.31274 | 38188 ft | 465 kts | 220° |
| 2026-04-27 12:19 | -21.22255 | -45.34707 | 38187 ft | 466 kts | 220° |
| 2026-04-27 12:20 | -21.27466 | -45.38833 | 38186 ft | 466 kts | 220° |
| 2026-04-27 12:20 | -21.33597 | -45.43690 | 38182 ft | 465 kts | 220° |
| 2026-04-27 12:21 | -21.37948 | -45.47141 | 38180 ft | 465 kts | 220° |
| 2026-04-27 12:21 | -21.43166 | -45.51282 | 38181 ft | 465 kts | 220° |
| 2026-04-27 12:22 | -21.48377 | -45.55420 | 38184 ft | 465 kts | 220° |
| 2026-04-27 12:22 | -21.53591 | -45.59538 | 38185 ft | 466 kts | 220° |
| 2026-04-27 12:23 | -21.58833 | -45.63650 | 38185 ft | 465 kts | 220° |
| 2026-04-27 12:23 | -21.64935 | -45.68443 | 38191 ft | 465 kts | 221° |
| 2026-04-27 12:24 | -21.69298 | -45.71874 | 38191 ft | 465 kts | 221° |
| 2026-04-27 12:24 | -21.75420 | -45.76694 | 38194 ft | 465 kts | 221° |
| 2026-04-27 12:25 | -21.79750 | -45.80106 | 38196 ft | 465 kts | 221° |
| 2026-04-27 12:25 | -21.84990 | -45.84240 | 38204 ft | 465 kts | 221° |
| 2026-04-27 12:26 | -21.90179 | -45.88338 | 38216 ft | 466 kts | 221° |
| 2026-04-27 12:26 | -21.95435 | -45.92492 | 38226 ft | 466 kts | 221° |
| 2026-04-27 12:27 | -22.00642 | -45.96609 | 38233 ft | 466 kts | 221° |
| 2026-04-27 12:27 | -22.05897 | -46.00768 | 38233 ft | 465 kts | 221° |
| 2026-04-27 12:28 | -22.11072 | -46.04870 | 38219 ft | 464 kts | 221° |
| 2026-04-27 12:28 | -22.16939 | -46.09526 | 38203 ft | 464 kts | 221° |
| 2026-04-27 12:29 | -22.21266 | -46.12962 | 38191 ft | 464 kts | 221° |
| 2026-04-27 12:29 | -22.26512 | -46.17131 | 38184 ft | 464 kts | 221° |
| 2026-04-27 12:30 | -22.31924 | -46.20947 | 38185 ft | 468 kts | 215° |
| 2026-04-27 12:30 | -22.37766 | -46.24176 | 38210 ft | 473 kts | 209° |
| 2026-04-27 12:31 | -22.43811 | -46.27040 | 38223 ft | 473 kts | 208° |
| 2026-04-27 12:31 | -22.49837 | -46.29871 | 38241 ft | 474 kts | 208° |
| 2026-04-27 12:32 | -22.55905 | -46.32732 | 38230 ft | 473 kts | 208° |
| 2026-04-27 12:32 | -22.61950 | -46.35591 | 38213 ft | 472 kts | 209° |
| 2026-04-27 12:33 | -22.67964 | -46.38441 | 38206 ft | 472 kts | 209° |
| 2026-04-27 12:33 | -22.73990 | -46.41299 | 38199 ft | 472 kts | 209° |
| 2026-04-27 12:34 | -22.80024 | -46.44163 | 38191 ft | 472 kts | 209° |
| 2026-04-27 12:34 | -22.86070 | -46.47035 | 38175 ft | 473 kts | 209° |
| 2026-04-27 12:35 | -22.92092 | -46.49900 | 38166 ft | 473 kts | 209° |
| 2026-04-27 12:35 | -22.98105 | -46.52762 | 38160 ft | 472 kts | 209° |
| 2026-04-27 12:36 | -23.04145 | -46.55640 | 38146 ft | 472 kts | 209° |
| 2026-04-27 12:36 | -23.10148 | -46.58502 | 38143 ft | 472 kts | 209° |
| 2026-04-27 12:37 | -23.17186 | -46.61862 | 38137 ft | 472 kts | 209° |
| 2026-04-27 12:37 | -23.22256 | -46.64285 | 38132 ft | 472 kts | 209° |
| 2026-04-27 12:38 | -23.28304 | -46.67176 | 38134 ft | 472 kts | 210° |
| 2026-04-27 12:38 | -23.34312 | -46.70059 | 38126 ft | 472 kts | 210° |
| 2026-04-27 12:39 | -23.40362 | -46.72968 | 38125 ft | 472 kts | 210° |
| 2026-04-27 12:39 | -23.46281 | -46.75812 | 38113 ft | 472 kts | 210° |
| 2026-04-27 12:40 | -23.53334 | -46.79205 | 38111 ft | 472 kts | 210° |
| 2026-04-27 12:40 | -23.58361 | -46.81622 | 38112 ft | 471 kts | 210° |
| 2026-04-27 12:41 | -23.65399 | -46.84999 | 38126 ft | 471 kts | 210° |
| 2026-04-27 12:41 | -23.71409 | -46.87884 | 38112 ft | 471 kts | 210° |
| 2026-04-27 12:42 | -23.76402 | -46.90290 | 38116 ft | 470 kts | 210° |
| 2026-04-27 12:42 | -23.82442 | -46.93212 | 38106 ft | 470 kts | 210° |
| 2026-04-27 12:43 | -23.88440 | -46.96117 | 38116 ft | 470 kts | 210° |
| 2026-04-27 12:43 | -23.94424 | -46.99015 | 38104 ft | 469 kts | 210° |
| 2026-04-27 12:44 | -24.00389 | -47.01904 | 38102 ft | 469 kts | 210° |
| 2026-04-27 12:44 | -24.06376 | -47.04807 | 38089 ft | 469 kts | 210° |
| 2026-04-27 12:45 | -24.12314 | -47.07688 | 38059 ft | 469 kts | 210° |
| 2026-04-27 12:45 | -24.18281 | -47.10589 | 38040 ft | 470 kts | 210° |
| 2026-04-27 12:46 | -24.25249 | -47.14098 | 38006 ft | 466 kts | 213° |
| 2026-04-27 12:46 | -24.29912 | -47.17013 | 37993 ft | 462 kts | 218° |
| 2026-04-27 12:47 | -24.35335 | -47.20772 | 37990 ft | 462 kts | 219° |
| 2026-04-27 12:47 | -24.40788 | -47.24573 | 37986 ft | 462 kts | 219° |
| 2026-04-27 12:48 | -24.46215 | -47.28356 | 37984 ft | 462 kts | 218° |
| 2026-04-27 12:48 | -24.51633 | -47.32130 | 37980 ft | 462 kts | 219° |
| 2026-04-27 12:49 | -24.57073 | -47.35922 | 37974 ft | 461 kts | 219° |
| 2026-04-27 12:49 | -24.62491 | -47.39704 | 37971 ft | 460 kts | 219° |
| 2026-04-27 12:50 | -24.67880 | -47.43469 | 37975 ft | 460 kts | 219° |
| 2026-04-27 12:50 | -24.73309 | -47.47265 | 37977 ft | 460 kts | 219° |
| 2026-04-27 12:51 | -24.78712 | -47.51047 | 37978 ft | 459 kts | 219° |
| 2026-04-27 12:51 | -24.84082 | -47.54809 | 37979 ft | 459 kts | 219° |
| 2026-04-27 12:52 | -24.89485 | -47.58599 | 37976 ft | 458 kts | 219° |
| 2026-04-27 12:52 | -24.94828 | -47.62351 | 37973 ft | 458 kts | 219° |
| 2026-04-27 12:53 | -25.02936 | -47.68053 | 37973 ft | 457 kts | 220° |
| 2026-04-27 12:53 | -25.09210 | -47.72469 | 37975 ft | 456 kts | 220° |
| 2026-04-27 12:54 | -25.13668 | -47.75613 | 37978 ft | 455 kts | 220° |
| 2026-04-27 12:54 | -25.19909 | -47.80013 | 37979 ft | 456 kts | 220° |
| 2026-04-27 12:55 | -25.25239 | -47.83778 | 37975 ft | 454 kts | 220° |
| 2026-04-27 12:55 | -25.29685 | -47.86922 | 37976 ft | 454 kts | 220° |
| 2026-04-27 12:56 | -25.34990 | -47.90682 | 37978 ft | 453 kts | 220° |
| 2026-04-27 12:56 | -25.40306 | -47.94450 | 37976 ft | 453 kts | 220° |
| 2026-04-27 12:57 | -25.45611 | -47.98217 | 37980 ft | 452 kts | 220° |
| 2026-04-27 12:57 | -25.50919 | -48.01986 | 37978 ft | 452 kts | 221° |
| 2026-04-27 12:58 | -25.56203 | -48.05744 | 37976 ft | 451 kts | 221° |
| 2026-04-27 12:58 | -25.61505 | -48.09520 | 37981 ft | 451 kts | 221° |
| 2026-04-27 12:59 | -25.66777 | -48.13273 | 37983 ft | 450 kts | 221° |
| 2026-04-27 12:59 | -25.72925 | -48.17650 | 37987 ft | 450 kts | 221° |
| 2026-04-27 13:00 | -25.77342 | -48.20799 | 37987 ft | 449 kts | 221° |
| 2026-04-27 13:00 | -25.82589 | -48.24538 | 37993 ft | 449 kts | 221° |
| 2026-04-27 13:01 | -25.87856 | -48.28297 | 37987 ft | 448 kts | 221° |
| 2026-04-27 13:01 | -25.93099 | -48.32046 | 37984 ft | 448 kts | 221° |
| 2026-04-27 13:02 | -25.98349 | -48.35803 | 37988 ft | 448 kts | 221° |
| 2026-04-27 13:02 | -26.04481 | -48.40194 | 37985 ft | 447 kts | 221° |
| 2026-04-27 13:03 | -26.08840 | -48.43317 | 37989 ft | 446 kts | 221° |
| 2026-04-27 13:03 | -26.14062 | -48.47065 | 37990 ft | 445 kts | 222° |
| 2026-04-27 13:04 | -26.19233 | -48.50780 | 37990 ft | 444 kts | 222° |
| 2026-04-27 13:04 | -26.24446 | -48.54533 | 37992 ft | 445 kts | 222° |
| 2026-04-27 13:05 | -26.29672 | -48.58293 | 37995 ft | 445 kts | 222° |
| 2026-04-27 13:05 | -26.34897 | -48.62067 | 37998 ft | 445 kts | 222° |
| 2026-04-27 13:06 | -26.40120 | -48.65839 | 38001 ft | 444 kts | 223° |
| 2026-04-27 13:06 | -26.45294 | -48.69579 | 38000 ft | 443 kts | 223° |
| 2026-04-27 13:07 | -26.50436 | -48.73335 | 38000 ft | 441 kts | 223° |
| 2026-04-27 13:07 | -26.55585 | -48.77138 | 38004 ft | 442 kts | 223° |
| 2026-04-27 13:08 | -26.60712 | -48.80921 | 38007 ft | 441 kts | 224° |
| 2026-04-27 13:08 | -26.65870 | -48.84732 | 38008 ft | 441 kts | 224° |
| 2026-04-27 13:09 | -26.71026 | -48.88512 | 38015 ft | 441 kts | 223° |
| 2026-04-27 13:09 | -26.76183 | -48.92272 | 38015 ft | 440 kts | 224° |
| 2026-04-27 13:10 | -26.81302 | -48.96014 | 38011 ft | 440 kts | 224° |
| 2026-04-27 13:10 | -26.86476 | -48.99800 | 38010 ft | 439 kts | 224° |
| 2026-04-27 13:11 | -26.91591 | -49.03548 | 38008 ft | 440 kts | 224° |
| 2026-04-27 13:11 | -26.96705 | -49.07299 | 38011 ft | 439 kts | 224° |
| 2026-04-27 13:12 | -27.01844 | -49.11075 | 38017 ft | 438 kts | 224° |
| 2026-04-27 13:12 | -27.06936 | -49.14814 | 38013 ft | 438 kts | 224° |
| 2026-04-27 13:13 | -27.12080 | -49.18604 | 38021 ft | 438 kts | 225° |
| 2026-04-27 13:13 | -27.17190 | -49.22369 | 38028 ft | 438 kts | 225° |
| 2026-04-27 13:14 | -27.22280 | -49.26123 | 38032 ft | 436 kts | 225° |
| 2026-04-27 13:14 | -27.27352 | -49.29868 | 38036 ft | 436 kts | 225° |
| 2026-04-27 13:15 | -27.32411 | -49.33607 | 38049 ft | 436 kts | 225° |
| 2026-04-27 13:15 | -27.37489 | -49.37366 | 38052 ft | 436 kts | 225° |
| 2026-04-27 13:16 | -27.42531 | -49.41101 | 38061 ft | 435 kts | 225° |
| 2026-04-27 13:16 | -27.47573 | -49.44839 | 38064 ft | 435 kts | 225° |
| 2026-04-27 13:17 | -27.52646 | -49.48603 | 38067 ft | 435 kts | 225° |
| 2026-04-27 13:17 | -27.57692 | -49.52352 | 38074 ft | 434 kts | 225° |
| 2026-04-27 13:18 | -27.62717 | -49.56077 | 38084 ft | 434 kts | 225° |
| 2026-04-27 13:18 | -27.67752 | -49.59810 | 38091 ft | 433 kts | 226° |
| 2026-04-27 13:19 | -27.72799 | -49.63561 | 38101 ft | 432 kts | 226° |
| 2026-04-27 13:19 | -27.77889 | -49.67267 | 38104 ft | 433 kts | 225° |
| 2026-04-27 13:20 | -27.82974 | -49.70878 | 38111 ft | 431 kts | 225° |
| 2026-04-27 13:20 | -27.88064 | -49.74501 | 38117 ft | 431 kts | 225° |
| 2026-04-27 13:21 | -27.93136 | -49.78123 | 38119 ft | 430 kts | 226° |
| 2026-04-27 13:21 | -27.98184 | -49.81733 | 38121 ft | 430 kts | 226° |
| 2026-04-27 13:22 | -28.03251 | -49.85362 | 38131 ft | 430 kts | 225° |
| 2026-04-27 13:22 | -28.08284 | -49.88971 | 38133 ft | 429 kts | 226° |
| 2026-04-27 13:23 | -28.14205 | -49.93216 | 38141 ft | 428 kts | 226° |
| 2026-04-27 13:23 | -28.18393 | -49.96227 | 38137 ft | 427 kts | 226° |
| 2026-04-27 13:24 | -28.23387 | -49.99818 | 38137 ft | 426 kts | 226° |
| 2026-04-27 13:24 | -28.28407 | -50.03436 | 38131 ft | 426 kts | 226° |
| 2026-04-27 13:25 | -28.33443 | -50.07065 | 38119 ft | 427 kts | 226° |
| 2026-04-27 13:25 | -28.39265 | -50.11268 | 38112 ft | 426 kts | 226° |
| 2026-04-27 13:26 | -28.43422 | -50.14271 | 38111 ft | 424 kts | 226° |
| 2026-04-27 13:26 | -28.48410 | -50.17880 | 38104 ft | 425 kts | 226° |
| 2026-04-27 13:27 | -28.53404 | -50.21495 | 38097 ft | 424 kts | 227° |
| 2026-04-27 13:27 | -28.58375 | -50.25100 | 38096 ft | 423 kts | 226° |
| 2026-04-27 13:28 | -28.63072 | -50.28507 | 38092 ft | 423 kts | 227° |
| 2026-04-27 13:28 | -28.65559 | -50.30311 | 37567 ft | 420 kts | 227° |
| 2026-04-27 13:28 | -28.68012 | -50.32093 | 36144 ft | 425 kts | 227° |
| 2026-04-27 13:29 | -28.70519 | -50.33929 | 34375 ft | 433 kts | 226° |
| 2026-04-27 13:29 | -28.72984 | -50.35823 | 32658 ft | 433 kts | 229° |
| 2026-04-27 13:29 | -28.75398 | -50.37843 | 30919 ft | 437 kts | 230° |
| 2026-04-27 13:29 | -28.78642 | -50.40606 | 28474 ft | 445 kts | 229° |
| 2026-04-27 13:30 | -28.80244 | -50.41975 | 27621 ft | 440 kts | 229° |
| 2026-04-27 13:30 | -28.83466 | -50.44706 | 26285 ft | 422 kts | 229° |
| 2026-04-27 13:30 | -28.85018 | -50.46018 | 25610 ft | 415 kts | 229° |
| 2026-04-27 13:30 | -28.87303 | -50.47964 | 24332 ft | 411 kts | 229° |
| 2026-04-27 13:31 | -28.89547 | -50.49888 | 23144 ft | 406 kts | 228° |
| 2026-04-27 13:31 | -28.91784 | -50.51802 | 21978 ft | 399 kts | 227° |
| 2026-04-27 13:31 | -28.93948 | -50.53658 | 20833 ft | 391 kts | 227° |
| 2026-04-27 13:31 | -28.96081 | -50.55488 | 19724 ft | 384 kts | 226° |
| 2026-04-27 13:32 | -28.98194 | -50.57296 | 18663 ft | 376 kts | 225° |
| 2026-04-27 13:32 | -29.00244 | -50.59052 | 17862 ft | 361 kts | 225° |
| 2026-04-27 13:32 | -29.02199 | -50.60719 | 17341 ft | 347 kts | 225° |
| 2026-04-27 13:32 | -29.04125 | -50.62369 | 17284 ft | 347 kts | 225° |
| 2026-04-27 13:33 | -29.06056 | -50.64028 | 17305 ft | 341 kts | 225° |
| 2026-04-27 13:33 | -29.07934 | -50.65635 | 17178 ft | 331 kts | 226° |
| 2026-04-27 13:33 | -29.09738 | -50.67178 | 17084 ft | 319 kts | 226° |
| 2026-04-27 13:33 | -29.11545 | -50.68604 | 17056 ft | 314 kts | 218° |
| 2026-04-27 13:34 | -29.13597 | -50.69483 | 17020 ft | 318 kts | 204° |
| 2026-04-27 13:34 | -29.15835 | -50.69808 | 16629 ft | 331 kts | 195° |
| 2026-04-27 13:34 | -29.18173 | -50.69944 | 16206 ft | 333 kts | 193° |
| 2026-04-27 13:34 | -29.20486 | -50.70048 | 15818 ft | 333 kts | 193° |
| 2026-04-27 13:35 | -29.22797 | -50.70151 | 15464 ft | 332 kts | 193° |
| 2026-04-27 13:35 | -29.25111 | -50.70265 | 15093 ft | 331 kts | 193° |
| 2026-04-27 13:35 | -29.27422 | -50.70384 | 14751 ft | 331 kts | 193° |
| 2026-04-27 13:35 | -29.30488 | -50.70541 | 14276 ft | 330 kts | 192° |
| 2026-04-27 13:36 | -29.32005 | -50.70611 | 14054 ft | 329 kts | 192° |
| 2026-04-27 13:36 | -29.34307 | -50.70711 | 13697 ft | 328 kts | 192° |
| 2026-04-27 13:36 | -29.36592 | -50.70809 | 13376 ft | 326 kts | 192° |
| 2026-04-27 13:36 | -29.38833 | -50.70904 | 13032 ft | 325 kts | 192° |
| 2026-04-27 13:37 | -29.41086 | -50.71000 | 12714 ft | 323 kts | 192° |
| 2026-04-27 13:37 | -29.43363 | -50.71096 | 12380 ft | 322 kts | 192° |
| 2026-04-27 13:37 | -29.45600 | -50.71193 | 12082 ft | 320 kts | 192° |
| 2026-04-27 13:37 | -29.47801 | -50.71287 | 11746 ft | 319 kts | 192° |
| 2026-04-27 13:38 | -29.50004 | -50.71383 | 11472 ft | 316 kts | 192° |
| 2026-04-27 13:38 | -29.52208 | -50.71479 | 11145 ft | 314 kts | 192° |
| 2026-04-27 13:38 | -29.54403 | -50.71573 | 10856 ft | 312 kts | 192° |
| 2026-04-27 13:38 | -29.56561 | -50.71666 | 10483 ft | 306 kts | 192° |
| 2026-04-27 13:39 | -29.58630 | -50.71747 | 10208 ft | 289 kts | 193° |
| 2026-04-27 13:39 | -29.60579 | -50.71823 | 10001 ft | 279 kts | 193° |
| 2026-04-27 13:39 | -29.62518 | -50.71910 | 9807 ft | 276 kts | 194° |
| 2026-04-27 13:39 | -29.64426 | -50.71997 | 9586 ft | 273 kts | 194° |
| 2026-04-27 13:40 | -29.66327 | -50.72085 | 9340 ft | 271 kts | 193° |
| 2026-04-27 13:40 | -29.68215 | -50.72169 | 8940 ft | 267 kts | 194° |
| 2026-04-27 13:40 | -29.70072 | -50.72252 | 8589 ft | 268 kts | 193° |
| 2026-04-27 13:40 | -29.71914 | -50.72422 | 8217 ft | 260 kts | 205° |
| 2026-04-27 13:41 | -29.73473 | -50.73259 | 7863 ft | 241 kts | 227° |
| 2026-04-27 13:41 | -29.74678 | -50.74556 | 7560 ft | 236 kts | 233° |
| 2026-04-27 13:41 | -29.76227 | -50.76336 | 7333 ft | 236 kts | 233° |
| 2026-04-27 13:41 | -29.77009 | -50.77230 | 7343 ft | 236 kts | 232° |
| 2026-04-27 13:42 | -29.78163 | -50.78545 | 7121 ft | 233 kts | 232° |
| 2026-04-27 13:42 | -29.79304 | -50.79845 | 6680 ft | 234 kts | 232° |
| 2026-04-27 13:42 | -29.80463 | -50.81163 | 6304 ft | 233 kts | 232° |
| 2026-04-27 13:42 | -29.81619 | -50.82480 | 6001 ft | 236 kts | 232° |
| 2026-04-27 13:43 | -29.82791 | -50.83811 | 5728 ft | 236 kts | 232° |
| 2026-04-27 13:43 | -29.83954 | -50.85130 | 5460 ft | 230 kts | 232° |
| 2026-04-27 13:43 | -29.85073 | -50.86397 | 5208 ft | 225 kts | 232° |
| 2026-04-27 13:43 | -29.86183 | -50.87657 | 4964 ft | 220 kts | 231° |
| 2026-04-27 13:44 | -29.87256 | -50.88878 | 4735 ft | 215 kts | 231° |
| 2026-04-27 13:44 | -29.88314 | -50.90083 | 4507 ft | 209 kts | 231° |
| 2026-04-27 13:44 | -29.89331 | -50.91236 | 4359 ft | 200 kts | 231° |
| 2026-04-27 13:44 | -29.90365 | -50.92300 | 4167 ft | 197 kts | 222° |
| 2026-04-27 13:45 | -29.91554 | -50.93048 | 4067 ft | 194 kts | 212° |
| 2026-04-27 13:45 | -29.92804 | -50.93631 | 3889 ft | 193 kts | 210° |
| 2026-04-27 13:45 | -29.94063 | -50.94190 | 3739 ft | 190 kts | 210° |
| 2026-04-27 13:45 | -29.95685 | -50.94908 | 3535 ft | 187 kts | 210° |
| 2026-04-27 13:46 | -29.96505 | -50.95272 | 3439 ft | 184 kts | 210° |
| 2026-04-27 13:46 | -29.97692 | -50.95802 | 3298 ft | 181 kts | 209° |
| 2026-04-27 13:46 | -29.98841 | -50.96335 | 3136 ft | 176 kts | 219° |
| 2026-04-27 13:46 | -29.99591 | -50.97363 | 2886 ft | 163 kts | 255° |
| 2026-04-27 13:47 | -29.99778 | -50.98597 | 2803 ft | 151 kts | 268° |
| 2026-04-27 13:47 | -29.99804 | -50.99784 | 2732 ft | 146 kts | 272° |
| 2026-04-27 13:47 | -29.99790 | -51.00959 | 2545 ft | 147 kts | 272° |
| 2026-04-27 13:47 | -29.99766 | -51.02140 | 2337 ft | 146 kts | 273° |
| 2026-04-27 13:48 | -29.99741 | -51.03306 | 2146 ft | 145 kts | 272° |
| 2026-04-27 13:48 | -29.99717 | -51.04455 | 1973 ft | 143 kts | 272° |
| 2026-04-27 13:48 | -29.99693 | -51.05600 | 1770 ft | 144 kts | 273° |
| 2026-04-27 13:48 | -29.99669 | -51.06759 | 1577 ft | 143 kts | 273° |
| 2026-04-27 13:49 | -29.99645 | -51.07929 | 1384 ft | 144 kts | 272° |
| 2026-04-27 13:49 | -29.99620 | -51.09085 | 1191 ft | 144 kts | 272° |
| 2026-04-27 13:49 | -29.99597 | -51.10215 | 1003 ft | 139 kts | 273° |
| 2026-04-27 13:49 | -29.99575 | -51.11307 | 821 ft | 131 kts | 273° |
| 2026-04-27 13:50 | -29.99555 | -51.12326 | 657 ft | 123 kts | 274° |
| 2026-04-27 13:50 | -29.99535 | -51.13312 | 515 ft | 124 kts | 272° |
| 2026-04-27 13:50 | -29.99519 | -51.14331 | 273 ft | 126 kts | 272° |
| 2026-04-27 13:50 | -29.99498 | -51.15338 | 41 ft | 123 kts | 271° |
| 2026-04-27 13:51 | -29.99479 | -51.16257 | 29 ft | 100 kts | 271° |
| 2026-04-27 13:51 | -29.99466 | -51.16906 | 29 ft | 63 kts | 271° |
| 2026-04-27 13:51 | -29.99459 | -51.17255 | 28 ft | 11 kts | 271° |
| 2026-04-27 13:51 | -29.99456 | -51.17372 | 28 ft | 18 kts | 271° |
| 2026-04-27 13:52 | -29.99452 | -51.17553 | 28 ft | 24 kts | 272° |
| 2026-04-27 13:52 | -29.99447 | -51.17746 | 28 ft | 23 kts | 271° |
| 2026-04-27 13:52 | -29.99444 | -51.17931 | 28 ft | 22 kts | 270° |
| 2026-04-27 13:52 | -29.99442 | -51.18106 | 28 ft | 21 kts | 271° |
| 2026-04-27 13:53 | -29.99334 | -51.18219 | 28 ft | 12 kts | 26° |
| 2026-04-27 13:53 | -29.99271 | -51.18180 | 28 ft | 7 kts | 34° |
| 2026-04-27 13:53 | -29.99248 | -51.18150 | 28 ft | 0 kts | 56° |
| 2026-04-27 13:55 | -29.99244 | -51.18142 | 28 ft | 3 kts | 59° |
| 2026-04-27 13:55 | -29.99220 | -51.18097 | 28 ft | 9 kts | 57° |
| 2026-04-27 13:55 | -29.99164 | -51.18038 | 28 ft | 12 kts | 29° |
| 2026-04-27 13:55 | -29.99105 | -51.17989 | 28 ft | 8 kts | 72° |
| 2026-04-27 13:56 | -29.99113 | -51.17929 | 28 ft | 5 kts | 85° |
| 2026-04-27 13:56 | -29.99096 | -51.17883 | 28 ft | 4 kts | 60° |
| 2026-04-27 13:56 | -29.99080 | -51.17854 | 28 ft | 4 kts | 58° |
| 2026-04-27 13:56 | -29.99079 | -51.17852 | 28 ft | 0 kts | 58° |